Observation data for Segovia 7SSW on 08/14/2019      Previous  Date  Next       Current Mesonet Observations  Soil Data  Daily Summary Page  Observations in Plain Language
KSE2 140500Z 13009KT 30/17 A3002 RMK A01 T02950168  RH  046%=      5-min Rain = 0
KSE2 140501Z 14010G15KT 30/17 A3002 RMK A01 T02950168  RH  046%=      5-min Rain = 0
KSE2 140502Z 14010KT 30/17 A3002 RMK A01 T02960169  RH  046%=      5-min Rain = 0
KSE2 140503Z 15010KT 30/17 A3002 RMK A01 T02960169  RH  046%=      5-min Rain = 0
KSE2 140504Z 15010KT 30/17 A3002 RMK A01 T02970170  RH  046%=      5-min Rain = 0
KSE2 140505Z 14009KT 30/17 A3002 RMK A01 T02970171  RH  047%=      5-min Rain = 0
KSE2 140506Z 14008KT 30/17 A3002 RMK A01 T02970170  RH  047%=      5-min Rain = 0
KSE2 140507Z 15008KT 30/17 A3002 RMK A01 T02970171  RH  047%=      5-min Rain = 0
KSE2 140508Z 15009KT 30/17 A3002 RMK A01 T02960171  RH  047%=      5-min Rain = 0
KSE2 140509Z 14008G13KT 30/17 A3002 RMK A01 T02960172  RH  047%=      5-min Rain = 0
KSE2 140510Z 15009KT 30/17 A3002 RMK A01 T02960172  RH  047%=      5-min Rain = 0
KSE2 140519Z 15008KT 30/18 A3002 RMK A01 T02950178  RH  050%=      5-min Rain = 0
KSE2 140520Z 15010KT 29/18 A3002 RMK A01 T02940179  RH  050%=      5-min Rain = 0
KSE2 140521Z 15009KT 30/18 A3002 RMK A01 T02950181  RH  050%=      5-min Rain = 0
KSE2 140522Z 14011KT 30/18 A3002 RMK A01 T02950182  RH  051%=      5-min Rain = 0
KSE2 140523Z 15007KT 29/18 A3002 RMK A01 T02940182  RH  051%=      5-min Rain = 0
KSE2 140524Z 15009KT 29/18 A3002 RMK A01 T02940182  RH  051%=      5-min Rain = 0
KSE2 140525Z 15008KT 29/18 A3002 RMK A01 T02940182  RH  051%=      5-min Rain = 0
KSE2 140526Z 15010KT 29/18 A3002 RMK A01 T02930183  RH  051%=      5-min Rain = 0
KSE2 140527Z 15010KT 29/18 A3002 RMK A01 T02930184  RH  052%=      5-min Rain = 0
KSE2 140528Z 14010KT 29/18 A3002 RMK A01 T02930184  RH  052%=      5-min Rain = 0
KSE2 140529Z 14011KT 29/19 A3002 RMK A01 T02930185  RH  052%=      5-min Rain = 0
KSE2 140530Z 15010KT 29/19 A3002 RMK A01 T02930185  RH  052%=      5-min Rain = 0
KSE2 140531Z 15009KT 29/19 A3002 RMK A01 T02930185  RH  052%=      5-min Rain = 0
KSE2 140532Z 15010G15KT 29/19 A3002 RMK A01 T02930186  RH  053%=      5-min Rain = 0
KSE2 140533Z 14010KT 29/19 A3002 RMK A01 T02920186  RH  053%=      5-min Rain = 0
KSE2 140534Z 14010KT 29/19 A3002 RMK A01 T02920186  RH  053%=      5-min Rain = 0
KSE2 140535Z 14009KT 29/19 A3002 RMK A01 T02920187  RH  053%=      5-min Rain = 0
KSE2 140536Z 15010KT 29/19 A3002 RMK A01 T02910187  RH  053%=      5-min Rain = 0
KSE2 140537Z 14008KT 29/19 A3002 RMK A01 T02910187  RH  054%=      5-min Rain = 0
KSE2 140538Z 15010G15KT 29/19 A3002 RMK A01 T02910187  RH  054%=      5-min Rain = 0
KSE2 140539Z 14011KT 29/19 A3002 RMK A01 T02910188  RH  054%=      5-min Rain = 0
KSE2 140540Z 14009KT 29/19 A3002 RMK A01 T02910188  RH  054%=      5-min Rain = 0
KSE2 140541Z 15009KT 29/19 A3002 RMK A01 T02900188  RH  054%=      5-min Rain = 0
KSE2 140542Z 14010G15KT 29/19 A3002 RMK A01 T02900188  RH  054%=      5-min Rain = 0
KSE2 140543Z 15011KT 29/19 A3002 RMK A01 T02900189  RH  055%=      5-min Rain = 0
KSE2 140544Z 14008KT 29/19 A3003 RMK A01 T02900189  RH  054%=      5-min Rain = 0
KSE2 140545Z 15008KT 29/19 A3003 RMK A01 T02900189  RH  055%=      5-min Rain = 0
KSE2 140546Z 14008KT 29/19 A3003 RMK A01 T02890189  RH  055%=      5-min Rain = 0
KSE2 140547Z 14009KT 29/19 A3003 RMK A01 T02890189  RH  055%=      5-min Rain = 0
KSE2 140548Z 14009KT 29/19 A3003 RMK A01 T02880190  RH  055%=      5-min Rain = 0
KSE2 140549Z 15011KT 29/19 A3003 RMK A01 T02880190  RH  055%=      5-min Rain = 0
KSE2 140550Z 14012KT 29/19 A3003 RMK A01 T02880191  RH  056%=      5-min Rain = 0
KSE2 140551Z 13012KT 29/19 A3003 RMK A01 T02880191  RH  056%=      5-min Rain = 0
KSE2 140552Z 14008KT 29/19 A3003 RMK A01 T02890192  RH  056%=      5-min Rain = 0
KSE2 140553Z 14009KT 29/19 A3003 RMK A01 T02880192  RH  056%=      5-min Rain = 0
KSE2 140554Z 15008KT 29/19 A3003 RMK A01 T02880192  RH  056%=      5-min Rain = 0
KSE2 140555Z 15008G13KT 29/19 A3003 RMK A01 T02880192  RH  056%=      5-min Rain = 0
KSE2 140556Z 15009KT 29/19 A3003 RMK A01 T02870192  RH  056%=      5-min Rain = 0
KSE2 140557Z 14007KT 29/19 A3003 RMK A01 T02870192  RH  056%=      5-min Rain = 0
KSE2 140558Z 14011KT 29/19 A3003 RMK A01 T02870192  RH  057%=      5-min Rain = 0
KSE2 140559Z 15010KT 29/19 A3003 RMK A01 T02860193  RH  057%=      5-min Rain = 0
KSE2 140600Z 15009KT 29/19 A3003 RMK A01 T02860193  RH  057%=      5-min Rain = 0
KSE2 140601Z 15007KT 29/19 A3003 RMK A01 T02860193  RH  057%=      5-min Rain = 0
KSE2 140602Z 15010KT 29/19 A3003 RMK A01 T02870193  RH  057%=      5-min Rain = 0
KSE2 140603Z 15011KT 29/19 A3003 RMK A01 T02860194  RH  058%=      5-min Rain = 0
KSE2 140604Z 15012KT 29/19 A3003 RMK A01 T02860194  RH  058%=      5-min Rain = 0
KSE2 140605Z 15011KT 29/20 A3003 RMK A01 T02860195  RH  058%=      5-min Rain = 0
KSE2 140606Z 15013KT 29/20 A3003 RMK A01 T02870196  RH  058%=      5-min Rain = 0
KSE2 140607Z 15011KT 29/20 A3003 RMK A01 T02870196  RH  058%=      5-min Rain = 0
KSE2 140608Z 14010KT 29/20 A3003 RMK A01 T02860196  RH  058%=      5-min Rain = 0
KSE2 140609Z 15010KT 29/20 A3003 RMK A01 T02860196  RH  058%=      5-min Rain = 0
KSE2 140610Z 15009KT 29/20 A3003 RMK A01 T02860196  RH  058%=      5-min Rain = 0
KSE2 140611Z 16009KT 29/20 A3003 RMK A01 T02860196  RH  058%=      5-min Rain = 0
KSE2 140612Z 16009KT 29/20 A3003 RMK A01 T02850197  RH  059%=      5-min Rain = 0
KSE2 140613Z 15009KT 29/20 A3003 RMK A01 T02850197  RH  059%=      5-min Rain = 0
KSE2 140614Z 16009G14KT 29/20 A3003 RMK A01 T02850197  RH  059%=      5-min Rain = 0
KSE2 140615Z 15010KT 29/20 A3003 RMK A01 T02850197  RH  059%=      5-min Rain = 0
KSE2 140616Z 15010KT 29/20 A3003 RMK A01 T02850198  RH  059%=      5-min Rain = 0
KSE2 140617Z 16008KT 29/20 A3003 RMK A01 T02850198  RH  059%=      5-min Rain = 0
KSE2 140618Z 15007KT 28/20 A3003 RMK A01 T02840198  RH  059%=      5-min Rain = 0
KSE2 140619Z 15008KT 28/20 A3003 RMK A01 T02840197  RH  059%=      5-min Rain = 0
KSE2 140620Z 16008KT 28/20 A3003 RMK A01 T02830198  RH  060%=      5-min Rain = 0
KSE2 140621Z 15008KT 28/20 A3003 RMK A01 T02830198  RH  060%=      5-min Rain = 0
KSE2 140622Z 15006KT 28/20 A3003 RMK A01 T02830198  RH  060%=      5-min Rain = 0
KSE2 140623Z 15006KT 28/20 A3003 RMK A01 T02820197  RH  060%=      5-min Rain = 0
KSE2 140624Z 15009KT 28/20 A3003 RMK A01 T02820198  RH  060%=      5-min Rain = 0
KSE2 140625Z 15007KT 28/20 A3003 RMK A01 T02820198  RH  060%=      5-min Rain = 0
KSE2 140626Z 15006KT 28/20 A3003 RMK A01 T02820198  RH  060%=      5-min Rain = 0
KSE2 140627Z 15006KT 28/20 A3003 RMK A01 T02820198  RH  060%=      5-min Rain = 0
KSE2 140628Z 15007KT 28/20 A3003 RMK A01 T02810198  RH  061%=      5-min Rain = 0
KSE2 140629Z 14007KT 28/20 A3003 RMK A01 T02810198  RH  061%=      5-min Rain = 0
KSE2 140630Z 15006KT 28/20 A3003 RMK A01 T02810199  RH  061%=      5-min Rain = 0
KSE2 140631Z 15007KT 28/20 A3003 RMK A01 T02810199  RH  061%=      5-min Rain = 0
KSE2 140632Z 15009KT 28/20 A3003 RMK A01 T02800199  RH  061%=      5-min Rain = 0
KSE2 140633Z 15008KT 28/20 A3004 RMK A01 T02800199  RH  061%=      5-min Rain = 0
KSE2 140634Z 15009KT 28/20 A3004 RMK A01 T02800199  RH  061%=      5-min Rain = 0
KSE2 140635Z 15009KT 28/20 A3004 RMK A01 T02800199  RH  061%=      5-min Rain = 0
KSE2 140636Z 16008KT 28/20 A3004 RMK A01 T02800199  RH  061%=      5-min Rain = 0
KSE2 140637Z 15009G14KT 28/20 A3004 RMK A01 T02800199  RH  061%=      5-min Rain = 0
KSE2 140638Z 15012KT 28/20 A3004 RMK A01 T02800200  RH  062%=      5-min Rain = 0
KSE2 140639Z 15009KT 28/20 A3004 RMK A01 T02800200  RH  062%=      5-min Rain = 0
KSE2 140640Z 16008KT 28/20 A3004 RMK A01 T02810200  RH  062%=      5-min Rain = 0
KSE2 140641Z 16009KT 28/20 A3004 RMK A01 T02800200  RH  062%=      5-min Rain = 0
KSE2 140642Z 16008KT 28/20 A3004 RMK A01 T02800200  RH  062%=      5-min Rain = 0
KSE2 140643Z 16008KT 28/20 A3004 RMK A01 T02800200  RH  062%=      5-min Rain = 0
KSE2 140644Z 16007KT 28/20 A3004 RMK A01 T02800200  RH  062%=      5-min Rain = 0
KSE2 140645Z 15010KT 28/20 A3003 RMK A01 T02790200  RH  062%=      5-min Rain = 0
KSE2 140646Z 16009KT 28/20 A3003 RMK A01 T02790200  RH  062%=      5-min Rain = 0
KSE2 140647Z 17008KT 28/20 A3003 RMK A01 T02790201  RH  062%=      5-min Rain = 0
KSE2 140648Z 17006KT 28/20 A3003 RMK A01 T02790200  RH  062%=      5-min Rain = 0
KSE2 140649Z 16007KT 28/20 A3003 RMK A01 T02790200  RH  062%=      5-min Rain = 0
KSE2 140650Z 16007KT 28/20 A3003 RMK A01 T02790200  RH  062%=      5-min Rain = 0
KSE2 140651Z 16007KT 28/20 A3004 RMK A01 T02780200  RH  063%=      5-min Rain = 0
KSE2 140652Z 17006KT 28/20 A3004 RMK A01 T02780200  RH  063%=      5-min Rain = 0
KSE2 140653Z 16008KT 28/20 A3004 RMK A01 T02780200  RH  063%=      5-min Rain = 0
KSE2 140654Z 17007KT 28/20 A3004 RMK A01 T02780201  RH  063%=      5-min Rain = 0
KSE2 140655Z 17006KT 28/20 A3004 RMK A01 T02770200  RH  063%=      5-min Rain = 0
KSE2 140656Z 17006KT 28/20 A3004 RMK A01 T02770200  RH  063%=      5-min Rain = 0
KSE2 140657Z 17006KT 28/20 A3004 RMK A01 T02760200  RH  063%=      5-min Rain = 0
KSE2 140658Z 16006KT 28/20 A3004 RMK A01 T02770201  RH  063%=      5-min Rain = 0
KSE2 140659Z 16007KT 28/20 A3004 RMK A01 T02760200  RH  063%=      5-min Rain = 0
KSE2 140700Z 17008KT 28/20 A3004 RMK A01 T02760200  RH  063%=      5-min Rain = 0
KSE2 140701Z 17006KT 28/20 A3003 RMK A01 T02760200  RH  063%=      5-min Rain = 0
KSE2 140702Z 17007KT 28/20 A3003 RMK A01 T02760200  RH  063%=      5-min Rain = 0
KSE2 140703Z 17006KT 28/20 A3003 RMK A01 T02760200  RH  063%=      5-min Rain = 0
KSE2 140704Z 17005KT 28/20 A3003 RMK A01 T02760200  RH  063%=      5-min Rain = 0
KSE2 140705Z 16005KT 28/20 A3003 RMK A01 T02760200  RH  063%=      5-min Rain = 0
KSE2 140706Z 16006KT 28/20 A3003 RMK A01 T02760200  RH  063%=      5-min Rain = 0
KSE2 140707Z 16008KT 28/20 A3003 RMK A01 T02760201  RH  063%=      5-min Rain = 0
KSE2 140708Z 16008KT 28/20 A3003 RMK A01 T02760200  RH  063%=      5-min Rain = 0
KSE2 140709Z 16006KT 28/20 A3003 RMK A01 T02760200  RH  063%=      5-min Rain = 0
KSE2 140710Z 16006KT 28/20 A3003 RMK A01 T02760200  RH  063%=      5-min Rain = 0
KSE2 140711Z 16006KT 28/20 A3003 RMK A01 T02760200  RH  063%=      5-min Rain = 0
KSE2 140712Z 16008KT 28/20 A3003 RMK A01 T02760201  RH  063%=      5-min Rain = 0
KSE2 140713Z 17009KT 28/20 A3003 RMK A01 T02750200  RH  064%=      5-min Rain = 0
KSE2 140714Z 16006G11KT 28/20 A3003 RMK A01 T02760201  RH  064%=      5-min Rain = 0
KSE2 140715Z 16007KT 28/20 A3003 RMK A01 T02760200  RH  064%=      5-min Rain = 0
KSE2 140716Z 16008KT 28/20 A3003 RMK A01 T02760201  RH  064%=      5-min Rain = 0
KSE2 140717Z 17006KT 28/20 A3003 RMK A01 T02750200  RH  064%=      5-min Rain = 0
KSE2 140718Z 16007KT 28/20 A3003 RMK A01 T02750201  RH  064%=      5-min Rain = 0
KSE2 140719Z 16009KT 28/20 A3003 RMK A01 T02750200  RH  064%=      5-min Rain = 0
KSE2 140720Z 16008KT 28/20 A3003 RMK A01 T02750201  RH  064%=      5-min Rain = 0
KSE2 140721Z 16007KT 28/20 A3003 RMK A01 T02750201  RH  064%=      5-min Rain = 0
KSE2 140722Z 16008KT 27/20 A3003 RMK A01 T02740200  RH  064%=      5-min Rain = 0
KSE2 140723Z 16009KT 27/20 A3003 RMK A01 T02740200  RH  064%=      5-min Rain = 0
KSE2 140724Z 16007KT 27/20 A3003 RMK A01 T02740200  RH  064%=      5-min Rain = 0
KSE2 140725Z 16007KT 27/20 A3003 RMK A01 T02740201  RH  064%=      5-min Rain = 0
KSE2 140726Z 16007KT 27/20 A3003 RMK A01 T02730200  RH  064%=      5-min Rain = 0
KSE2 140727Z 16008KT 27/20 A3003 RMK A01 T02730201  RH  065%=      5-min Rain = 0
KSE2 140728Z 16007KT 27/20 A3003 RMK A01 T02730200  RH  065%=      5-min Rain = 0
KSE2 140729Z 16006KT 27/20 A3003 RMK A01 T02730201  RH  065%=      5-min Rain = 0
KSE2 140730Z 16008KT 27/20 A3003 RMK A01 T02720201  RH  065%=      5-min Rain = 0
KSE2 140731Z 16006KT 27/20 A3003 RMK A01 T02720201  RH  065%=      5-min Rain = 0
KSE2 140732Z 16008KT 27/20 A3004 RMK A01 T02720201  RH  065%=      5-min Rain = 0
KSE2 140733Z 17006KT 27/20 A3004 RMK A01 T02720201  RH  065%=      5-min Rain = 0
KSE2 140734Z 16006KT 27/20 A3004 RMK A01 T02720201  RH  065%=      5-min Rain = 0
KSE2 140735Z 15008KT 27/20 A3004 RMK A01 T02720201  RH  065%=      5-min Rain = 0
KSE2 140736Z 15006KT 27/20 A3004 RMK A01 T02710201  RH  065%=      5-min Rain = 0
KSE2 140737Z 15006KT 27/20 A3004 RMK A01 T02720201  RH  065%=      5-min Rain = 0
KSE2 140738Z 16006KT 27/20 A3004 RMK A01 T02710201  RH  065%=      5-min Rain = 0
KSE2 140739Z 16006KT 27/20 A3004 RMK A01 T02710201  RH  065%=      5-min Rain = 0
KSE2 140740Z 15008KT 27/20 A3004 RMK A01 T02700201  RH  066%=      5-min Rain = 0
KSE2 140741Z 16007KT 27/20 A3004 RMK A01 T02710201  RH  066%=      5-min Rain = 0
KSE2 140742Z 15007KT 27/20 A3004 RMK A01 T02710201  RH  066%=      5-min Rain = 0
KSE2 140743Z 16007KT 27/20 A3004 RMK A01 T02700201  RH  066%=      5-min Rain = 0
KSE2 140744Z 16008KT 27/20 A3004 RMK A01 T02700201  RH  066%=      5-min Rain = 0
KSE2 140745Z 16007KT 27/20 A3004 RMK A01 T02700201  RH  066%=      5-min Rain = 0
KSE2 140746Z 16007KT 27/20 A3004 RMK A01 T02700201  RH  066%=      5-min Rain = 0
KSE2 140747Z 16006KT 27/20 A3004 RMK A01 T02700201  RH  066%=      5-min Rain = 0
KSE2 140748Z 16006KT 27/20 A3004 RMK A01 T02700201  RH  066%=      5-min Rain = 0
KSE2 140749Z 16006KT 27/20 A3004 RMK A01 T02700201  RH  066%=      5-min Rain = 0
KSE2 140750Z 15007KT 27/20 A3004 RMK A01 T02690201  RH  066%=      5-min Rain = 0
KSE2 140751Z 15008KT 27/20 A3004 RMK A01 T02690201  RH  066%=      5-min Rain = 0
KSE2 140752Z 15008KT 27/20 A3004 RMK A01 T02690201  RH  066%=      5-min Rain = 0
KSE2 140753Z 15007KT 27/20 A3004 RMK A01 T02690202  RH  066%=      5-min Rain = 0
KSE2 140754Z 15006KT 27/20 A3004 RMK A01 T02690201  RH  066%=      5-min Rain = 0
KSE2 140755Z 15006KT 27/20 A3004 RMK A01 T02690201  RH  066%=      5-min Rain = 0
KSE2 140756Z 15007KT 27/20 A3004 RMK A01 T02680201  RH  066%=      5-min Rain = 0
KSE2 140757Z 15008KT 27/20 A3004 RMK A01 T02680201  RH  067%=      5-min Rain = 0
KSE2 140758Z 16008KT 27/20 A3004 RMK A01 T02680201  RH  067%=      5-min Rain = 0
KSE2 140759Z 15008KT 27/20 A3004 RMK A01 T02680201  RH  067%=      5-min Rain = 0
KSE2 140800Z 15006KT 27/20 A3004 RMK A01 T02680201  RH  067%=      5-min Rain = 0
KSE2 140801Z 16008KT 27/20 A3004 RMK A01 T02680200  RH  067%=      5-min Rain = 0
KSE2 140802Z 17009KT 27/20 A3004 RMK A01 T02680201  RH  067%=      5-min Rain = 0
KSE2 140803Z 16006KT 27/20 A3004 RMK A01 T02670200  RH  067%=      5-min Rain = 0
KSE2 140804Z 16007KT 27/20 A3004 RMK A01 T02670200  RH  067%=      5-min Rain = 0
KSE2 140805Z 16007KT 27/20 A3004 RMK A01 T02670200  RH  067%=      5-min Rain = 0
KSE2 140806Z 16007KT 27/20 A3004 RMK A01 T02670200  RH  067%=      5-min Rain = 0
KSE2 140807Z 17006KT 27/20 A3004 RMK A01 T02670200  RH  067%=      5-min Rain = 0
KSE2 140808Z 16008KT 27/20 A3004 RMK A01 T02670200  RH  067%=      5-min Rain = 0
KSE2 140809Z 16007KT 27/20 A3004 RMK A01 T02670199  RH  067%=      5-min Rain = 0
KSE2 140810Z 17007KT 27/20 A3004 RMK A01 T02670200  RH  067%=      5-min Rain = 0
KSE2 140811Z 16008KT 27/20 A3004 RMK A01 T02660199  RH  067%=      5-min Rain = 0
KSE2 140812Z 16008KT 27/20 A3004 RMK A01 T02660199  RH  067%=      5-min Rain = 0
KSE2 140813Z 16007KT 27/20 A3004 RMK A01 T02660199  RH  067%=      5-min Rain = 0
KSE2 140814Z 16006KT 27/20 A3004 RMK A01 T02650198  RH  067%=      5-min Rain = 0
KSE2 140815Z 17007KT 27/20 A3004 RMK A01 T02650198  RH  067%=      5-min Rain = 0
KSE2 140816Z 17007KT 27/20 A3004 RMK A01 T02650198  RH  067%=      5-min Rain = 0
KSE2 140817Z 16006KT 27/20 A3004 RMK A01 T02650197  RH  067%=      5-min Rain = 0
KSE2 140818Z 17007KT 27/20 A3004 RMK A01 T02650197  RH  066%=      5-min Rain = 0
KSE2 140819Z 16007KT 26/20 A3004 RMK A01 T02640197  RH  066%=      5-min Rain = 0
KSE2 140820Z 17008KT 26/20 A3004 RMK A01 T02640197  RH  066%=      5-min Rain = 0
KSE2 140821Z 16008KT 26/20 A3004 RMK A01 T02640196  RH  066%=      5-min Rain = 0
KSE2 140822Z 16007KT 26/20 A3004 RMK A01 T02640196  RH  066%=      5-min Rain = 0
KSE2 140823Z 16007KT 26/20 A3004 RMK A01 T02640196  RH  066%=      5-min Rain = 0
KSE2 140824Z 17007KT 26/20 A3004 RMK A01 T02640196  RH  066%=      5-min Rain = 0
KSE2 140825Z 16006KT 26/20 A3004 RMK A01 T02640195  RH  066%=      5-min Rain = 0
KSE2 140826Z 16005KT 26/20 A3004 RMK A01 T02630195  RH  066%=      5-min Rain = 0
KSE2 140827Z 17006KT 26/20 A3004 RMK A01 T02630195  RH  066%=      5-min Rain = 0
KSE2 140828Z 17006KT 26/20 A3004 RMK A01 T02630195  RH  066%=      5-min Rain = 0
KSE2 140829Z 17006KT 26/19 A3004 RMK A01 T02620194  RH  066%=      5-min Rain = 0
KSE2 140830Z 17006KT 26/19 A3004 RMK A01 T02620194  RH  066%=      5-min Rain = 0
KSE2 140831Z 17006KT 26/19 A3004 RMK A01 T02630194  RH  066%=      5-min Rain = 0
KSE2 140832Z 17007KT 26/19 A3004 RMK A01 T02620194  RH  066%=      5-min Rain = 0
KSE2 140833Z 18007KT 26/19 A3004 RMK A01 T02620193  RH  066%=      5-min Rain = 0
KSE2 140834Z 17006KT 26/19 A3004 RMK A01 T02620193  RH  066%=      5-min Rain = 0
KSE2 140835Z 17006KT 26/19 A3004 RMK A01 T02620193  RH  066%=      5-min Rain = 0
KSE2 140836Z 18007KT 26/19 A3004 RMK A01 T02610193  RH  066%=      5-min Rain = 0
KSE2 140837Z 17005KT 26/19 A3004 RMK A01 T02610192  RH  066%=      5-min Rain = 0
KSE2 140838Z 18006KT 26/19 A3004 RMK A01 T02610192  RH  066%=      5-min Rain = 0
KSE2 140839Z 17006KT 26/19 A3004 RMK A01 T02610192  RH  066%=      5-min Rain = 0
KSE2 140840Z 18005KT 26/19 A3004 RMK A01 T02610192  RH  066%=      5-min Rain = 0
KSE2 140841Z 18005KT 26/19 A3004 RMK A01 T02600191  RH  066%=      5-min Rain = 0
KSE2 140842Z 18008KT 26/19 A3004 RMK A01 T02600191  RH  066%=      5-min Rain = 0
KSE2 140843Z 17006KT 26/19 A3004 RMK A01 T02600190  RH  065%=      5-min Rain = 0
KSE2 140844Z 18007KT 26/19 A3004 RMK A01 T02600189  RH  065%=      5-min Rain = 0
KSE2 140845Z 17007KT 26/19 A3004 RMK A01 T02600189  RH  065%=      5-min Rain = 0
KSE2 140846Z 17007KT 26/19 A3004 RMK A01 T02600189  RH  065%=      5-min Rain = 0
KSE2 140847Z 18007KT 26/19 A3004 RMK A01 T02600189  RH  065%=      5-min Rain = 0
KSE2 140848Z 18007KT 26/19 A3004 RMK A01 T02600188  RH  065%=      5-min Rain = 0
KSE2 140849Z 17008KT 26/19 A3004 RMK A01 T02600189  RH  065%=      5-min Rain = 0
KSE2 140850Z 18007KT 26/19 A3004 RMK A01 T02600188  RH  065%=      5-min Rain = 0
KSE2 140851Z 17007KT 26/19 A3004 RMK A01 T02600188  RH  064%=      5-min Rain = 0
KSE2 140852Z 17008KT 26/19 A3004 RMK A01 T02600188  RH  064%=      5-min Rain = 0
KSE2 140853Z 17008KT 26/19 A3004 RMK A01 T02600188  RH  064%=      5-min Rain = 0
KSE2 140854Z 17006KT 26/19 A3003 RMK A01 T02600188  RH  064%=      5-min Rain = 0
KSE2 140855Z 17007KT 26/19 A3003 RMK A01 T02600188  RH  065%=      5-min Rain = 0
KSE2 140856Z 17007KT 26/19 A3003 RMK A01 T02590188  RH  065%=      5-min Rain = 0
KSE2 140857Z 17008KT 26/19 A3003 RMK A01 T02590187  RH  065%=      5-min Rain = 0
KSE2 140858Z 17007KT 26/19 A3003 RMK A01 T02590187  RH  065%=      5-min Rain = 0
KSE2 140859Z 17007KT 26/19 A3003 RMK A01 T02590188  RH  065%=      5-min Rain = 0
KSE2 140900Z 17009KT 26/19 A3003 RMK A01 T02580187  RH  065%=      5-min Rain = 0
KSE2 140901Z 17007KT 26/19 A3003 RMK A01 T02580187  RH  065%=      5-min Rain = 0
KSE2 140902Z 17008KT 26/19 A3003 RMK A01 T02580188  RH  065%=      5-min Rain = 0
KSE2 140903Z 17006KT 26/19 A3003 RMK A01 T02580188  RH  065%=      5-min Rain = 0
KSE2 140904Z 17006KT 26/19 A3003 RMK A01 T02580188  RH  065%=      5-min Rain = 0
KSE2 140905Z 17006KT 26/19 A3003 RMK A01 T02580188  RH  065%=      5-min Rain = 0
KSE2 140906Z 18006KT 26/19 A3003 RMK A01 T02580188  RH  065%=      5-min Rain = 0
KSE2 140907Z 17007KT 26/19 A3003 RMK A01 T02580188  RH  065%=      5-min Rain = 0
KSE2 140908Z 17007KT 26/19 A3003 RMK A01 T02570188  RH  066%=      5-min Rain = 0
KSE2 140909Z 18006KT 26/19 A3003 RMK A01 T02570188  RH  066%=      5-min Rain = 0
KSE2 140910Z 17007KT 26/19 A3003 RMK A01 T02570189  RH  066%=      5-min Rain = 0
KSE2 140911Z 18008KT 26/19 A3003 RMK A01 T02570189  RH  066%=      5-min Rain = 0
KSE2 140912Z 18007KT 26/19 A3003 RMK A01 T02570189  RH  066%=      5-min Rain = 0
KSE2 140913Z 18007KT 26/19 A3003 RMK A01 T02570189  RH  066%=      5-min Rain = 0
KSE2 140914Z 18007KT 26/19 A3003 RMK A01 T02570190  RH  066%=      5-min Rain = 0
KSE2 140915Z 17006KT 26/19 A3003 RMK A01 T02570190  RH  066%=      5-min Rain = 0
KSE2 140916Z 17007KT 26/19 A3003 RMK A01 T02570190  RH  067%=      5-min Rain = 0
KSE2 140917Z 17007KT 26/19 A3003 RMK A01 T02570190  RH  067%=      5-min Rain = 0
KSE2 140918Z 17007KT 26/19 A3003 RMK A01 T02560191  RH  067%=      5-min Rain = 0
KSE2 140919Z 18007KT 26/19 A3003 RMK A01 T02560191  RH  067%=      5-min Rain = 0
KSE2 140920Z 17007KT 26/19 A3003 RMK A01 T02570192  RH  067%=      5-min Rain = 0
KSE2 140921Z 17006KT 26/19 A3003 RMK A01 T02570192  RH  067%=      5-min Rain = 0
KSE2 140922Z 18006KT 26/19 A3003 RMK A01 T02560192  RH  067%=      5-min Rain = 0
KSE2 140923Z 18005KT 26/19 A3003 RMK A01 T02570192  RH  068%=      5-min Rain = 0
KSE2 140924Z 18007KT 26/19 A3003 RMK A01 T02560192  RH  068%=      5-min Rain = 0
KSE2 140925Z 18006KT 26/19 A3003 RMK A01 T02570193  RH  068%=      5-min Rain = 0
KSE2 140926Z 17006KT 26/19 A3003 RMK A01 T02560193  RH  068%=      5-min Rain = 0
KSE2 140927Z 17005KT 26/19 A3003 RMK A01 T02570193  RH  068%=      5-min Rain = 0
KSE2 140928Z 17005KT 26/19 A3003 RMK A01 T02570193  RH  068%=      5-min Rain = 0
KSE2 140929Z 18006KT 26/19 A3003 RMK A01 T02560194  RH  068%=      5-min Rain = 0
KSE2 140930Z 17007KT 26/19 A3003 RMK A01 T02570194  RH  068%=      5-min Rain = 0
KSE2 140931Z 17006KT 26/19 A3003 RMK A01 T02560194  RH  068%=      5-min Rain = 0
KSE2 140932Z 17007KT 26/20 A3003 RMK A01 T02570195  RH  069%=      5-min Rain = 0
KSE2 140933Z 18007KT 26/20 A3003 RMK A01 T02560195  RH  069%=      5-min Rain = 0
KSE2 140934Z 17008KT 26/20 A3003 RMK A01 T02560195  RH  069%=      5-min Rain = 0
KSE2 140935Z 18006KT 26/20 A3003 RMK A01 T02570196  RH  069%=      5-min Rain = 0
KSE2 140936Z 18006KT 26/20 A3003 RMK A01 T02560196  RH  069%=      5-min Rain = 0
KSE2 140937Z 17006KT 26/20 A3003 RMK A01 T02560196  RH  069%=      5-min Rain = 0
KSE2 140938Z 17007KT 26/20 A3003 RMK A01 T02560197  RH  069%=      5-min Rain = 0
KSE2 140939Z 17006KT 26/20 A3003 RMK A01 T02560197  RH  070%=      5-min Rain = 0
KSE2 140940Z 17007KT 26/20 A3003 RMK A01 T02560197  RH  070%=      5-min Rain = 0
KSE2 140941Z 17007KT 26/20 A3003 RMK A01 T02560198  RH  070%=      5-min Rain = 0
KSE2 140942Z 18005KT 26/20 A3003 RMK A01 T02560197  RH  070%=      5-min Rain = 0
KSE2 140943Z 17008KT 26/20 A3003 RMK A01 T02560197  RH  070%=      5-min Rain = 0
KSE2 140944Z 18006KT 26/20 A3003 RMK A01 T02560198  RH  070%=      5-min Rain = 0
KSE2 140945Z 17005KT 26/20 A3003 RMK A01 T02560198  RH  070%=      5-min Rain = 0
KSE2 140946Z 17006KT 26/20 A3003 RMK A01 T02560198  RH  070%=      5-min Rain = 0
KSE2 140947Z 17005KT 26/20 A3003 RMK A01 T02560198  RH  071%=      5-min Rain = 0
KSE2 140948Z 17006KT 26/20 A3003 RMK A01 T02550198  RH  071%=      5-min Rain = 0
KSE2 140949Z 16004KT 26/20 A3003 RMK A01 T02550198  RH  071%=      5-min Rain = 0
KSE2 140950Z 16005KT 26/20 A3003 RMK A01 T02550198  RH  071%=      5-min Rain = 0
KSE2 140951Z 17006KT 26/20 A3003 RMK A01 T02550199  RH  071%=      5-min Rain = 0
KSE2 140952Z 16008KT 26/20 A3003 RMK A01 T02550199  RH  071%=      5-min Rain = 0
KSE2 140953Z 17008KT 26/20 A3003 RMK A01 T02550200  RH  071%=      5-min Rain = 0
KSE2 140954Z 16006KT 26/20 A3003 RMK A01 T02550200  RH  071%=      5-min Rain = 0
KSE2 140955Z 16006KT 26/20 A3003 RMK A01 T02550199  RH  071%=      5-min Rain = 0
KSE2 140956Z 16006KT 26/20 A3003 RMK A01 T02550199  RH  071%=      5-min Rain = 0
KSE2 140957Z 16006KT 26/20 A3003 RMK A01 T02550200  RH  072%=      5-min Rain = 0
KSE2 140958Z 16006KT 25/20 A3003 RMK A01 T02540199  RH  072%=      5-min Rain = 0
KSE2 140959Z 16006KT 25/20 A3003 RMK A01 T02540200  RH  072%=      5-min Rain = 0
KSE2 141000Z 16007KT 25/20 A3003 RMK A01 T02540200  RH  072%=      5-min Rain = 0
KSE2 141001Z 16005KT 25/20 A3003 RMK A01 T02540200  RH  072%=      5-min Rain = 0
KSE2 141002Z 16006KT 25/20 A3003 RMK A01 T02540200  RH  072%=      5-min Rain = 0
KSE2 141003Z 16006KT 25/20 A3003 RMK A01 T02540200  RH  072%=      5-min Rain = 0
KSE2 141004Z 16006KT 25/20 A3003 RMK A01 T02540200  RH  072%=      5-min Rain = 0
KSE2 141005Z 16005KT 25/20 A3003 RMK A01 T02530200  RH  072%=      5-min Rain = 0
KSE2 141006Z 16004KT 25/20 A3003 RMK A01 T02540200  RH  072%=      5-min Rain = 0
KSE2 141007Z 16005KT 25/20 A3003 RMK A01 T02530200  RH  072%=      5-min Rain = 0
KSE2 141008Z 15007KT 25/20 A3003 RMK A01 T02530200  RH  072%=      5-min Rain = 0
KSE2 141009Z 16006KT 25/20 A3003 RMK A01 T02530200  RH  072%=      5-min Rain = 0
KSE2 141010Z 16004KT 25/20 A3003 RMK A01 T02530200  RH  072%=      5-min Rain = 0
KSE2 141011Z 16004KT 25/20 A3003 RMK A01 T02520199  RH  072%=      5-min Rain = 0
KSE2 141012Z 16006KT 25/20 A3003 RMK A01 T02520200  RH  073%=      5-min Rain = 0
KSE2 141013Z 16005KT 25/20 A3003 RMK A01 T02520199  RH  073%=      5-min Rain = 0
KSE2 141014Z 16007KT 25/20 A3003 RMK A01 T02520200  RH  073%=      5-min Rain = 0
KSE2 141015Z 16006KT 25/20 A3003 RMK A01 T02510200  RH  073%=      5-min Rain = 0
KSE2 141016Z 17005KT 25/20 A3003 RMK A01 T02510200  RH  073%=      5-min Rain = 0
KSE2 141017Z 16005KT 25/20 A3003 RMK A01 T02510200  RH  073%=      5-min Rain = 0
KSE2 141018Z 16005KT 25/20 A3003 RMK A01 T02510200  RH  073%=      5-min Rain = 0
KSE2 141019Z 16006KT 25/20 A3003 RMK A01 T02510200  RH  073%=      5-min Rain = 0
KSE2 141020Z 16005KT 25/20 A3003 RMK A01 T02510200  RH  073%=      5-min Rain = 0
KSE2 141021Z 15006KT 25/20 A3003 RMK A01 T02500200  RH  074%=      5-min Rain = 0
KSE2 141022Z 16006KT 25/20 A3003 RMK A01 T02510200  RH  074%=      5-min Rain = 0
KSE2 141023Z 15004KT 25/20 A3003 RMK A01 T02500200  RH  074%=      5-min Rain = 0
KSE2 141024Z 15006KT 25/20 A3003 RMK A01 T02500200  RH  074%=      5-min Rain = 0
KSE2 141025Z 15006KT 25/20 A3003 RMK A01 T02500200  RH  074%=      5-min Rain = 0
KSE2 141026Z 15004KT 25/20 A3003 RMK A01 T02490200  RH  074%=      5-min Rain = 0
KSE2 141027Z 15005KT 25/20 A3003 RMK A01 T02500200  RH  074%=      5-min Rain = 0
KSE2 141028Z 15006KT 25/20 A3003 RMK A01 T02490200  RH  074%=      5-min Rain = 0
KSE2 141029Z 15005KT 25/20 A3003 RMK A01 T02490200  RH  074%=      5-min Rain = 0
KSE2 141030Z 16005KT 25/20 A3003 RMK A01 T02490200  RH  074%=      5-min Rain = 0
KSE2 141031Z 16005KT 25/20 A3003 RMK A01 T02490200  RH  074%=      5-min Rain = 0
KSE2 141032Z 16004KT 25/20 A3003 RMK A01 T02490200  RH  074%=      5-min Rain = 0
KSE2 141033Z 16005KT 25/20 A3003 RMK A01 T02490200  RH  074%=      5-min Rain = 0
KSE2 141034Z 16005KT 25/20 A3003 RMK A01 T02480200  RH  074%=      5-min Rain = 0
KSE2 141035Z 17004KT 25/20 A3003 RMK A01 T02480200  RH  074%=      5-min Rain = 0
KSE2 141036Z 16006KT 25/20 A3003 RMK A01 T02480200  RH  075%=      5-min Rain = 0
KSE2 141037Z 16006KT 25/20 A3003 RMK A01 T02480200  RH  075%=      5-min Rain = 0
KSE2 141038Z 16006KT 25/20 A3003 RMK A01 T02480200  RH  075%=      5-min Rain = 0
KSE2 141039Z 16005KT 25/20 A3003 RMK A01 T02480200  RH  075%=      5-min Rain = 0
KSE2 141040Z 16004KT 25/20 A3003 RMK A01 T02480200  RH  075%=      5-min Rain = 0
KSE2 141041Z 17005KT 25/20 A3003 RMK A01 T02470200  RH  075%=      5-min Rain = 0
KSE2 141042Z 17005KT 25/20 A3003 RMK A01 T02470200  RH  075%=      5-min Rain = 0
KSE2 141043Z 16006KT 25/20 A3003 RMK A01 T02470200  RH  075%=      5-min Rain = 0
KSE2 141044Z 16007KT 25/20 A3003 RMK A01 T02470200  RH  075%=      5-min Rain = 0
KSE2 141045Z 17005KT 25/20 A3003 RMK A01 T02470200  RH  075%=      5-min Rain = 0
KSE2 141046Z 16005KT 25/20 A3003 RMK A01 T02470200  RH  075%=      5-min Rain = 0
KSE2 141047Z 17004KT 25/20 A3003 RMK A01 T02460200  RH  075%=      5-min Rain = 0
KSE2 141048Z 17006KT 25/20 A3003 RMK A01 T02470200  RH  075%=      5-min Rain = 0
KSE2 141049Z 16006KT 25/20 A3003 RMK A01 T02460200  RH  075%=      5-min Rain = 0
KSE2 141050Z 16004KT 25/20 A3003 RMK A01 T02450200  RH  076%=      5-min Rain = 0
KSE2 141051Z 16006KT 25/20 A3003 RMK A01 T02460200  RH  076%=      5-min Rain = 0
KSE2 141052Z 17005KT 25/20 A3003 RMK A01 T02450200  RH  076%=      5-min Rain = 0
KSE2 141053Z 18005KT 25/20 A3003 RMK A01 T02450200  RH  076%=      5-min Rain = 0
KSE2 141054Z 17005KT 25/20 A3003 RMK A01 T02450199  RH  076%=      5-min Rain = 0
KSE2 141055Z 17005KT 24/20 A3003 RMK A01 T02440199  RH  076%=      5-min Rain = 0
KSE2 141056Z 16004KT 24/20 A3003 RMK A01 T02440199  RH  076%=      5-min Rain = 0
KSE2 141057Z 18005KT 24/20 A3003 RMK A01 T02440199  RH  076%=      5-min Rain = 0
KSE2 141058Z 17005KT 24/20 A3003 RMK A01 T02440199  RH  076%=      5-min Rain = 0
KSE2 141059Z 16005KT 24/20 A3003 RMK A01 T02430199  RH  076%=      5-min Rain = 0
KSE2 141100Z 15004KT 24/20 A3003 RMK A01 T02430199  RH  076%=      5-min Rain = 0
KSE2 141101Z 16004KT 24/20 A3003 RMK A01 T02430199  RH  076%=      5-min Rain = 0
KSE2 141102Z 17004KT 24/20 A3004 RMK A01 T02430199  RH  077%=      5-min Rain = 0
KSE2 141103Z 16004KT 24/20 A3004 RMK A01 T02420199  RH  077%=      5-min Rain = 0
KSE2 141104Z 16004KT 24/20 A3004 RMK A01 T02420199  RH  077%=      5-min Rain = 0
KSE2 141105Z 16005KT 24/20 A3004 RMK A01 T02420199  RH  077%=      5-min Rain = 0
KSE2 141106Z 16004KT 24/20 A3004 RMK A01 T02420199  RH  077%=      5-min Rain = 0
KSE2 141107Z 16005KT 24/20 A3004 RMK A01 T02410199  RH  077%=      5-min Rain = 0
KSE2 141108Z 17004KT 24/20 A3004 RMK A01 T02410199  RH  077%=      5-min Rain = 0
KSE2 141109Z 17003KT 24/20 A3004 RMK A01 T02410198  RH  077%=      5-min Rain = 0
KSE2 141110Z 17004KT 24/20 A3004 RMK A01 T02410199  RH  077%=      5-min Rain = 0
KSE2 141111Z 16004KT 24/20 A3004 RMK A01 T02410199  RH  077%=      5-min Rain = 0
KSE2 141112Z 17005KT 24/20 A3004 RMK A01 T02400199  RH  077%=      5-min Rain = 0
KSE2 141113Z 17004KT 24/20 A3004 RMK A01 T02400199  RH  077%=      5-min Rain = 0
KSE2 141114Z 17003KT 24/20 A3004 RMK A01 T02400199  RH  078%=      5-min Rain = 0
KSE2 141115Z 16004KT 24/20 A3004 RMK A01 T02400199  RH  078%=      5-min Rain = 0
KSE2 141116Z 17003KT 24/20 A3004 RMK A01 T02400199  RH  078%=      5-min Rain = 0
KSE2 141117Z 17003KT 24/20 A3004 RMK A01 T02400199  RH  078%=      5-min Rain = 0
KSE2 141118Z 18004KT 24/20 A3004 RMK A01 T02400199  RH  078%=      5-min Rain = 0
KSE2 141119Z 18004KT 24/20 A3004 RMK A01 T02390199  RH  078%=      5-min Rain = 0
KSE2 141120Z 17005KT 24/20 A3004 RMK A01 T02400199  RH  078%=      5-min Rain = 0
KSE2 141121Z 17003KT 24/20 A3004 RMK A01 T02400200  RH  078%=      5-min Rain = 0
KSE2 141122Z 17004KT 24/20 A3004 RMK A01 T02390200  RH  078%=      5-min Rain = 0
KSE2 141123Z 17004KT 24/20 A3004 RMK A01 T02390200  RH  079%=      5-min Rain = 0
KSE2 141124Z 18003KT 24/20 A3005 RMK A01 T02390200  RH  079%=      5-min Rain = 0
KSE2 141125Z 17004KT 24/20 A3005 RMK A01 T02390200  RH  079%=      5-min Rain = 0
KSE2 141126Z 17004KT 24/20 A3005 RMK A01 T02390200  RH  079%=      5-min Rain = 0
KSE2 141127Z 16003KT 24/20 A3005 RMK A01 T02390200  RH  079%=      5-min Rain = 0
KSE2 141128Z 16003KT 24/20 A3005 RMK A01 T02390200  RH  079%=      5-min Rain = 0
KSE2 141129Z 18003KT 24/20 A3005 RMK A01 T02390200  RH  079%=      5-min Rain = 0
KSE2 141130Z 16003KT 24/20 A3005 RMK A01 T02390201  RH  079%=      5-min Rain = 0
KSE2 141131Z 18003KT 24/20 A3005 RMK A01 T02390201  RH  079%=      5-min Rain = 0
KSE2 141132Z 18003KT 24/20 A3005 RMK A01 T02390201  RH  079%=      5-min Rain = 0
KSE2 141133Z 18002KT 24/20 A3005 RMK A01 T02390201  RH  080%=      5-min Rain = 0
KSE2 141134Z 18002KT 24/20 A3005 RMK A01 T02380201  RH  080%=      5-min Rain = 0
KSE2 141135Z 19002KT 24/20 A3005 RMK A01 T02380201  RH  080%=      5-min Rain = 0
KSE2 141136Z 19002KT 24/20 A3005 RMK A01 T02380201  RH  080%=      5-min Rain = 0
KSE2 141137Z 18002KT 24/20 A3005 RMK A01 T02380201  RH  080%=      5-min Rain = 0
KSE2 141138Z 18003KT 24/20 A3005 RMK A01 T02380201  RH  080%=      5-min Rain = 0
KSE2 141139Z 19002KT 24/20 A3005 RMK A01 T02370201  RH  080%=      5-min Rain = 0
KSE2 141140Z 18002KT 24/20 A3005 RMK A01 T02370201  RH  080%=      5-min Rain = 0
KSE2 141141Z 19002KT 24/20 A3005 RMK A01 T02370201  RH  080%=      5-min Rain = 0
KSE2 141142Z 19002KT 24/20 A3005 RMK A01 T02370201  RH  080%=      5-min Rain = 0
KSE2 141143Z 18002KT 24/20 A3005 RMK A01 T02370201  RH  080%=      5-min Rain = 0
KSE2 141144Z 19002KT 24/20 A3005 RMK A01 T02370201  RH  081%=      5-min Rain = 0
KSE2 141145Z 18002KT 24/20 A3005 RMK A01 T02370201  RH  081%=      5-min Rain = 0
KSE2 141146Z 17002KT 24/20 A3005 RMK A01 T02360202  RH  081%=      5-min Rain = 0
KSE2 141147Z 17002KT 24/20 A3005 RMK A01 T02360202  RH  081%=      5-min Rain = 0
KSE2 141148Z 17002KT 24/20 A3005 RMK A01 T02360202  RH  081%=      5-min Rain = 0
KSE2 141149Z 17003KT 24/20 A3005 RMK A01 T02360202  RH  081%=      5-min Rain = 0
KSE2 141150Z 17003KT 24/20 A3005 RMK A01 T02360202  RH  081%=      5-min Rain = 0
KSE2 141151Z 17003KT 24/20 A3005 RMK A01 T02360203  RH  082%=      5-min Rain = 0
KSE2 141152Z 17003KT 24/20 A3005 RMK A01 T02360203  RH  082%=      5-min Rain = 0
KSE2 141153Z 17003KT 24/20 A3005 RMK A01 T02360203  RH  082%=      5-min Rain = 0
KSE2 141154Z 17003KT 24/20 A3005 RMK A01 T02360204  RH  082%=      5-min Rain = 0
KSE2 141155Z 18003KT 24/20 A3006 RMK A01 T02370203  RH  082%=      5-min Rain = 0
KSE2 141156Z 18003KT 24/20 A3006 RMK A01 T02360203  RH  082%=      5-min Rain = 0
KSE2 141157Z 19002KT 24/20 A3006 RMK A01 T02360203  RH  082%=      5-min Rain = 0
KSE2 141158Z 19002KT 24/20 A3006 RMK A01 T02360203  RH  082%=      5-min Rain = 0
KSE2 141159Z 19002KT 24/20 A3006 RMK A01 T02360203  RH  082%=      5-min Rain = 0
KSE2 141200Z 19002KT 24/20 A3006 RMK A01 T02360203  RH  082%=      5-min Rain = 0
KSE2 141201Z 18002KT 24/20 A3006 RMK A01 T02360202  RH  081%=      5-min Rain = 0
KSE2 141202Z 19002KT 24/20 A3006 RMK A01 T02360203  RH  082%=      5-min Rain = 0
KSE2 141203Z 19002KT 24/20 A3006 RMK A01 T02350202  RH  082%=      5-min Rain = 0
KSE2 141204Z 20001KT 24/20 A3006 RMK A01 T02350202  RH  082%=      5-min Rain = 0
KSE2 141205Z 20002KT 24/20 A3006 RMK A01 T02350202  RH  082%=      5-min Rain = 0
KSE2 141206Z 20001KT 24/20 A3006 RMK A01 T02350202  RH  082%=      5-min Rain = 0
KSE2 141207Z 21001KT 24/20 A3006 RMK A01 T02360202  RH  082%=      5-min Rain = 0
KSE2 141208Z 23001KT 24/20 A3006 RMK A01 T02360203  RH  082%=      5-min Rain = 0
KSE2 141209Z 24001KT 24/20 A3006 RMK A01 T02360203  RH  082%=      5-min Rain = 0
KSE2 141210Z 27001KT 24/20 A3007 RMK A01 T02360203  RH  082%=      5-min Rain = 0
KSE2 141211Z 29002KT 24/20 A3007 RMK A01 T02360203  RH  082%=      5-min Rain = 0
KSE2 141212Z 32002KT 24/20 A3007 RMK A01 T02360203  RH  082%=      5-min Rain = 0
KSE2 141213Z 32002KT 24/20 A3007 RMK A01 T02360203  RH  082%=      5-min Rain = 0
KSE2 141214Z 32003KT 24/20 A3007 RMK A01 T02350202  RH  082%=      5-min Rain = 0
KSE2 141215Z 33003KT 24/20 A3007 RMK A01 T02350202  RH  082%=      5-min Rain = 0
KSE2 141216Z 33003KT 23/20 A3007 RMK A01 T02340201  RH  082%=      5-min Rain = 0
KSE2 141217Z 33002KT 24/20 A3007 RMK A01 T02350201  RH  082%=      5-min Rain = 0
KSE2 141218Z 33002KT 24/20 A3007 RMK A01 T02350201  RH  082%=      5-min Rain = 0
KSE2 141219Z 32001KT 23/20 A3007 RMK A01 T02340201  RH  082%=      5-min Rain = 0
KSE2 141220Z 32001KT 23/20 A3007 RMK A01 T02340201  RH  082%=      5-min Rain = 0
KSE2 141221Z 32000KT 24/20 A3007 RMK A01 T02350201  RH  082%=      5-min Rain = 0
KSE2 141222Z 00000KT 23/20 A3007 RMK A01 T02340201  RH  082%=      5-min Rain = 0
KSE2 141223Z 00000KT 24/20 A3007 RMK A01 T02350201  RH  082%=      5-min Rain = 0
KSE2 141224Z 00000KT 24/20 A3007 RMK A01 T02350201  RH  082%=      5-min Rain = 0
KSE2 141225Z 00000KT 23/20 A3007 RMK A01 T02340201  RH  081%=      5-min Rain = 0
KSE2 141226Z 00000KT 24/20 A3007 RMK A01 T02350201  RH  081%=      5-min Rain = 0
KSE2 141227Z 00000KT 24/20 A3007 RMK A01 T02350201  RH  081%=      5-min Rain = 0
KSE2 141228Z 00000KT 24/20 A3007 RMK A01 T02350201  RH  081%=      5-min Rain = 0
KSE2 141229Z 00000KT 24/20 A3007 RMK A01 T02350201  RH  081%=      5-min Rain = 0
KSE2 141230Z 00000KT 24/20 A3007 RMK A01 T02350201  RH  081%=      5-min Rain = 0
KSE2 141231Z 00000KT 24/20 A3007 RMK A01 T02350200  RH  081%=      5-min Rain = 0
KSE2 141232Z 00000KT 24/20 A3007 RMK A01 T02350199  RH  080%=      5-min Rain = 0
KSE2 141233Z 00000KT 24/20 A3007 RMK A01 T02350199  RH  080%=      5-min Rain = 0
KSE2 141234Z 00000KT 24/20 A3007 RMK A01 T02350200  RH  080%=      5-min Rain = 0
KSE2 141235Z 00000KT 24/20 A3007 RMK A01 T02360200  RH  080%=      5-min Rain = 0
KSE2 141236Z 00000KT 24/20 A3007 RMK A01 T02370200  RH  080%=      5-min Rain = 0
KSE2 141237Z 00000KT 24/20 A3007 RMK A01 T02370201  RH  080%=      5-min Rain = 0
KSE2 141238Z 00000KT 24/20 A3007 RMK A01 T02380201  RH  080%=      5-min Rain = 0
KSE2 141239Z 00000KT 24/20 A3007 RMK A01 T02390202  RH  080%=      5-min Rain = 0
KSE2 141240Z 00000KT 24/20 A3007 RMK A01 T02390203  RH  080%=      5-min Rain = 0
KSE2 141241Z 00000KT 24/20 A3007 RMK A01 T02400202  RH  080%=      5-min Rain = 0
KSE2 141242Z 00000KT 24/20 A3007 RMK A01 T02400203  RH  080%=      5-min Rain = 0
KSE2 141243Z 00000KT 24/20 A3007 RMK A01 T02410203  RH  079%=      5-min Rain = 0
KSE2 141244Z 00000KT 24/20 A3007 RMK A01 T02410203  RH  079%=      5-min Rain = 0
KSE2 141245Z 00000KT 24/20 A3007 RMK A01 T02420202  RH  079%=      5-min Rain = 0
KSE2 141246Z 00000KT 24/20 A3007 RMK A01 T02420202  RH  078%=      5-min Rain = 0
KSE2 141247Z 00000KT 24/20 A3007 RMK A01 T02420202  RH  079%=      5-min Rain = 0
KSE2 141248Z 00000KT 24/20 A3007 RMK A01 T02420203  RH  079%=      5-min Rain = 0
KSE2 141249Z 00000KT 24/20 A3007 RMK A01 T02420203  RH  079%=      5-min Rain = 0
KSE2 141250Z 00000KT 24/20 A3007 RMK A01 T02430204  RH  079%=      5-min Rain = 0
KSE2 141251Z 00000KT 24/20 A3007 RMK A01 T02430204  RH  079%=      5-min Rain = 0
KSE2 141252Z 00000KT 24/20 A3007 RMK A01 T02440204  RH  078%=      5-min Rain = 0
KSE2 141253Z 00000KT 24/20 A3007 RMK A01 T02440204  RH  078%=      5-min Rain = 0
KSE2 141254Z 00000KT 25/21 A3007 RMK A01 T02450205  RH  078%=      5-min Rain = 0
KSE2 141255Z 00000KT 25/21 A3007 RMK A01 T02460205  RH  078%=      5-min Rain = 0
KSE2 141256Z 17000KT 25/21 A3007 RMK A01 T02460206  RH  078%=      5-min Rain = 0
KSE2 141257Z 17000KT 25/21 A3007 RMK A01 T02460207  RH  078%=      5-min Rain = 0
KSE2 141258Z 17000KT 25/21 A3007 RMK A01 T02460207  RH  079%=      5-min Rain = 0
KSE2 141259Z 21001KT 25/21 A3007 RMK A01 T02460207  RH  078%=      5-min Rain = 0
KSE2 141300Z 23001KT 25/21 A3007 RMK A01 T02470207  RH  079%=      5-min Rain = 0
KSE2 141301Z 21000KT 25/21 A3007 RMK A01 T02470207  RH  079%=      5-min Rain = 0
KSE2 141302Z 15000KT 25/21 A3007 RMK A01 T02470208  RH  079%=      5-min Rain = 0
KSE2 141303Z 17000KT 25/21 A3007 RMK A01 T02480208  RH  078%=      5-min Rain = 0
KSE2 141304Z 19001KT 25/21 A3007 RMK A01 T02490208  RH  078%=      5-min Rain = 0
KSE2 141305Z 20001KT 25/21 A3007 RMK A01 T02490208  RH  078%=      5-min Rain = 0
KSE2 141306Z 19001KT 25/21 A3007 RMK A01 T02490208  RH  078%=      5-min Rain = 0
KSE2 141307Z 20000KT 25/21 A3007 RMK A01 T02500209  RH  078%=      5-min Rain = 0
KSE2 141308Z 22001KT 25/21 A3007 RMK A01 T02510211  RH  078%=      5-min Rain = 0
KSE2 141309Z 22001KT 25/21 A3007 RMK A01 T02500209  RH  078%=      5-min Rain = 0
KSE2 141310Z 22000KT 25/21 A3007 RMK A01 T02510210  RH  078%=      5-min Rain = 0
KSE2 141311Z 00000KT 25/21 A3007 RMK A01 T02520209  RH  077%=      5-min Rain = 0
KSE2 141312Z 00000KT 25/21 A3007 RMK A01 T02530208  RH  076%=      5-min Rain = 0
KSE2 141313Z 17000KT 25/21 A3007 RMK A01 T02530209  RH  076%=      5-min Rain = 0
KSE2 141314Z 16001KT 25/21 A3007 RMK A01 T02540209  RH  076%=      5-min Rain = 0
KSE2 141315Z 16002KT 25/21 A3007 RMK A01 T02540210  RH  077%=      5-min Rain = 0
KSE2 141316Z 16003KT 25/21 A3007 RMK A01 T02540209  RH  076%=      5-min Rain = 0
KSE2 141317Z 16002KT 25/21 A3007 RMK A01 T02540209  RH  076%=      5-min Rain = 0
KSE2 141318Z 17002KT 25/21 A3007 RMK A01 T02540209  RH  076%=      5-min Rain = 0
KSE2 141319Z 15002KT 25/21 A3007 RMK A01 T02540209  RH  076%=      5-min Rain = 0
KSE2 141320Z 14002KT 25/21 A3007 RMK A01 T02540209  RH  076%=      5-min Rain = 0
KSE2 141321Z 15002KT 25/21 A3007 RMK A01 T02540209  RH  076%=      5-min Rain = 0
KSE2 141322Z 15002KT 26/21 A3008 RMK A01 T02550210  RH  076%=      5-min Rain = 0
KSE2 141323Z 16002KT 26/21 A3008 RMK A01 T02550210  RH  076%=      5-min Rain = 0
KSE2 141324Z 16002KT 26/21 A3008 RMK A01 T02550210  RH  076%=      5-min Rain = 0
KSE2 141325Z 16002KT 26/21 A3008 RMK A01 T02550210  RH  076%=      5-min Rain = 0
KSE2 141326Z 16003KT 26/21 A3008 RMK A01 T02550211  RH  076%=      5-min Rain = 0
KSE2 141327Z 17002KT 26/21 A3007 RMK A01 T02560212  RH  077%=      5-min Rain = 0
KSE2 141328Z 17002KT 26/21 A3007 RMK A01 T02550211  RH  077%=      5-min Rain = 0
KSE2 141329Z 16003KT 26/21 A3007 RMK A01 T02560212  RH  077%=      5-min Rain = 0
KSE2 141330Z 20002KT 26/21 A3007 RMK A01 T02560213  RH  077%=      5-min Rain = 0
KSE2 141331Z 19002KT 26/21 A3008 RMK A01 T02560213  RH  077%=      5-min Rain = 0
KSE2 141332Z 18002KT 26/21 A3008 RMK A01 T02580213  RH  076%=      5-min Rain = 0
KSE2 141333Z 20002KT 26/21 A3008 RMK A01 T02580213  RH  076%=      5-min Rain = 0
KSE2 141334Z 21002KT 26/21 A3008 RMK A01 T02590214  RH  076%=      5-min Rain = 0
KSE2 141335Z 23002KT 26/21 A3008 RMK A01 T02590214  RH  076%=      5-min Rain = 0
KSE2 141336Z 25001KT 26/21 A3008 RMK A01 T02590214  RH  076%=      5-min Rain = 0
KSE2 141337Z 25003KT 26/21 A3008 RMK A01 T02590214  RH  076%=      5-min Rain = 0
KSE2 141338Z 23003KT 26/22 A3008 RMK A01 T02590215  RH  076%=      5-min Rain = 0
KSE2 141339Z 24002KT 26/22 A3008 RMK A01 T02590215  RH  077%=      5-min Rain = 0
KSE2 141340Z 22001KT 26/22 A3008 RMK A01 T02580215  RH  077%=      5-min Rain = 0
KSE2 141341Z 18001KT 26/22 A3008 RMK A01 T02590215  RH  076%=      5-min Rain = 0
KSE2 141342Z 19003KT 26/21 A3008 RMK A01 T02600214  RH  075%=      5-min Rain = 0
KSE2 141343Z 18002KT 26/21 A3008 RMK A01 T02610214  RH  075%=      5-min Rain = 0
KSE2 141344Z 15002KT 26/21 A3008 RMK A01 T02610214  RH  075%=      5-min Rain = 0
KSE2 141345Z 18002KT 26/22 A3008 RMK A01 T02620215  RH  075%=      5-min Rain = 0
KSE2 141346Z 20002KT 26/22 A3008 RMK A01 T02630215  RH  075%=      5-min Rain = 0
KSE2 141347Z 19004KT 26/22 A3008 RMK A01 T02630216  RH  075%=      5-min Rain = 0
KSE2 141348Z 22004KT 26/22 A3008 RMK A01 T02640217  RH  075%=      5-min Rain = 0
KSE2 141349Z 20004KT 26/22 A3008 RMK A01 T02640217  RH  075%=      5-min Rain = 0
KSE2 141350Z 21003KT 26/22 A3008 RMK A01 T02630217  RH  075%=      5-min Rain = 0
KSE2 141351Z 19003KT 26/22 A3008 RMK A01 T02630217  RH  076%=      5-min Rain = 0
KSE2 141352Z 20002KT 26/22 A3008 RMK A01 T02640217  RH  076%=      5-min Rain = 0
KSE2 141353Z 20005KT 27/22 A3008 RMK A01 T02650217  RH  075%=      5-min Rain = 0
KSE2 141354Z 19003KT 26/22 A3008 RMK A01 T02640216  RH  075%=      5-min Rain = 0
KSE2 141355Z 21004KT 26/22 A3008 RMK A01 T02630217  RH  076%=      5-min Rain = 0
KSE2 141356Z 22003KT 26/22 A3008 RMK A01 T02640217  RH  075%=      5-min Rain = 0
KSE2 141357Z 20003KT 26/22 A3008 RMK A01 T02640217  RH  075%=      5-min Rain = 0
KSE2 141358Z 22002KT 27/22 A3008 RMK A01 T02650218  RH  075%=      5-min Rain = 0
KSE2 141359Z 24002KT 27/22 A3008 RMK A01 T02660218  RH  075%=      5-min Rain = 0
KSE2 141400Z 23003KT 27/22 A3008 RMK A01 T02670217  RH  074%=      5-min Rain = 0
KSE2 141401Z 22002KT 27/22 A3008 RMK A01 T02670217  RH  074%=      5-min Rain = 0
KSE2 141402Z 23002KT 27/22 A3008 RMK A01 T02660217  RH  075%=      5-min Rain = 0
KSE2 141403Z 23003KT 27/22 A3009 RMK A01 T02660216  RH  074%=      5-min Rain = 0
KSE2 141404Z 21002KT 27/22 A3009 RMK A01 T02660217  RH  074%=      5-min Rain = 0
KSE2 141405Z 18003KT 27/22 A3009 RMK A01 T02680217  RH  074%=      5-min Rain = 0
KSE2 141406Z 18003KT 27/22 A3009 RMK A01 T02690217  RH  073%=      5-min Rain = 0
KSE2 141407Z 20004KT 27/22 A3009 RMK A01 T02690217  RH  073%=      5-min Rain = 0
KSE2 141408Z 22003KT 27/22 A3009 RMK A01 T02690217  RH  073%=      5-min Rain = 0
KSE2 141409Z 21003KT 27/22 A3009 RMK A01 T02690217  RH  073%=      5-min Rain = 0
KSE2 141410Z 22002KT 27/22 A3009 RMK A01 T02690218  RH  073%=      5-min Rain = 0
KSE2 141411Z 23003KT 27/22 A3009 RMK A01 T02700216  RH  072%=      5-min Rain = 0
KSE2 141412Z 23002KT 27/22 A3009 RMK A01 T02700216  RH  072%=      5-min Rain = 0
KSE2 141413Z 24000KT 27/22 A3009 RMK A01 T02720217  RH  072%=      5-min Rain = 0
KSE2 141414Z 24002KT 27/22 A3009 RMK A01 T02730217  RH  072%=      5-min Rain = 0
KSE2 141415Z 21002KT 27/22 A3009 RMK A01 T02730218  RH  072%=      5-min Rain = 0
KSE2 141416Z 23004KT 28/22 A3009 RMK A01 T02750216  RH  070%=      5-min Rain = 0
KSE2 141417Z 24002KT 27/21 A3009 RMK A01 T02740214  RH  070%=      5-min Rain = 0
KSE2 141418Z 25003KT 27/21 A3009 RMK A01 T02730214  RH  070%=      5-min Rain = 0
KSE2 141419Z 22005KT 27/21 A3009 RMK A01 T02740214  RH  070%=      5-min Rain = 0
KSE2 141420Z 23003KT 27/22 A3009 RMK A01 T02730215  RH  070%=      5-min Rain = 0
KSE2 141421Z 25003KT 27/21 A3009 RMK A01 T02730214  RH  070%=      5-min Rain = 0
KSE2 141422Z 26003KT 27/22 A3009 RMK A01 T02740215  RH  070%=      5-min Rain = 0
KSE2 141423Z 23004KT 27/21 A3009 RMK A01 T02740213  RH  070%=      5-min Rain = 0
KSE2 141424Z 22004KT 28/21 A3009 RMK A01 T02750211  RH  068%=      5-min Rain = 0
KSE2 141425Z 23004KT 28/21 A3009 RMK A01 T02760209  RH  067%=      5-min Rain = 0
KSE2 141426Z 24002KT 28/21 A3009 RMK A01 T02760209  RH  067%=      5-min Rain = 0
KSE2 141427Z 22001KT 28/21 A3009 RMK A01 T02770210  RH  067%=      5-min Rain = 0
KSE2 141428Z 22003KT 28/21 A3009 RMK A01 T02790212  RH  067%=      5-min Rain = 0
KSE2 141429Z 23002KT 28/21 A3009 RMK A01 T02800213  RH  067%=      5-min Rain = 0
KSE2 141430Z 26001KT 28/21 A3009 RMK A01 T02790213  RH  067%=      5-min Rain = 0
KSE2 141431Z 22002KT 28/21 A3009 RMK A01 T02790214  RH  068%=      5-min Rain = 0
KSE2 141432Z 19003KT 28/21 A3009 RMK A01 T02800214  RH  067%=      5-min Rain = 0
KSE2 141433Z 18004KT 28/21 A3009 RMK A01 T02810209  RH  065%=      5-min Rain = 0
KSE2 141434Z 20005KT 28/21 A3009 RMK A01 T02820211  RH  065%=      5-min Rain = 0
KSE2 141435Z 19004KT 28/21 A3009 RMK A01 T02810210  RH  065%=      5-min Rain = 0
KSE2 141436Z 19003KT 28/21 A3009 RMK A01 T02810210  RH  066%=      5-min Rain = 0
KSE2 141437Z 20003KT 28/21 A3009 RMK A01 T02820211  RH  065%=      5-min Rain = 0
KSE2 141438Z 20002KT 28/21 A3009 RMK A01 T02820211  RH  065%=      5-min Rain = 0
KSE2 141439Z 20003KT 28/21 A3009 RMK A01 T02820212  RH  066%=      5-min Rain = 0
KSE2 141440Z 18004KT 28/21 A3009 RMK A01 T02840211  RH  065%=      5-min Rain = 0
KSE2 141441Z 18003KT 28/21 A3009 RMK A01 T02840211  RH  064%=      5-min Rain = 0
KSE2 141442Z 20003KT 29/21 A301 RMK A01 T02850208  RH  063%=      5-min Rain = 0
KSE2 141443Z 16000KT 29/21 A301 RMK A01 T02860208  RH  063%=      5-min Rain = 0
KSE2 141444Z 22003KT 29/21 A301 RMK A01 T02880208  RH  062%=      5-min Rain = 0
KSE2 141445Z 19004KT 29/21 A301 RMK A01 T02880207  RH  062%=      5-min Rain = 0
KSE2 141446Z 22003KT 29/21 A301 RMK A01 T02870207  RH  062%=      5-min Rain = 0
KSE2 141447Z 23003KT 29/21 A301 RMK A01 T02860206  RH  062%=      5-min Rain = 0
KSE2 141448Z 21004KT 29/20 A301 RMK A01 T02860204  RH  061%=      5-min Rain = 0
KSE2 141449Z 21004KT 29/20 A301 RMK A01 T02870202  RH  060%=      5-min Rain = 0
KSE2 141450Z 22005KT 29/20 A301 RMK A01 T02850203  RH  061%=      5-min Rain = 0
KSE2 141451Z 23004KT 28/21 A301 RMK A01 T02840205  RH  062%=      5-min Rain = 0
KSE2 141452Z 19004KT 28/20 A301 RMK A01 T02830204  RH  062%=      5-min Rain = 0
KSE2 141453Z 19003KT 28/20 A301 RMK A01 T02840203  RH  061%=      5-min Rain = 0
KSE2 141454Z 17002KT 29/20 A301 RMK A01 T02850203  RH  061%=      5-min Rain = 0
KSE2 141455Z 17003KT 29/20 A301 RMK A01 T02860204  RH  061%=      5-min Rain = 0
KSE2 141456Z 16003KT 29/20 A301 RMK A01 T02870204  RH  060%=      5-min Rain = 0
KSE2 141457Z 18003KT 29/20 A301 RMK A01 T02890202  RH  059%=      5-min Rain = 0
KSE2 141458Z 19003KT 29/21 A301 RMK A01 T02920205  RH  060%=      5-min Rain = 0
KSE2 141459Z 18003KT 29/21 A301 RMK A01 T02930205  RH  059%=      5-min Rain = 0
KSE2 141500Z 19004KT 29/20 A301 RMK A01 T02920202  RH  058%=      5-min Rain = 0
KSE2 141501Z 21004KT 29/20 A301 RMK A01 T02920197  RH  057%=      5-min Rain = 0
KSE2 141502Z 20003KT 29/20 A301 RMK A01 T02910198  RH  057%=      5-min Rain = 0
KSE2 141503Z 18004KT 29/20 A301 RMK A01 T02920200  RH  058%=      5-min Rain = 0
KSE2 141504Z 19003KT 29/20 A301 RMK A01 T02930202  RH  058%=      5-min Rain = 0
KSE2 141505Z 20003KT 29/20 A301 RMK A01 T02920203  RH  059%=      5-min Rain = 0
KSE2 141506Z 20003KT 29/20 A301 RMK A01 T02930202  RH  058%=      5-min Rain = 0
KSE2 141507Z 25002KT 29/20 A301 RMK A01 T02920201  RH  058%=      5-min Rain = 0
KSE2 141508Z 22004KT 29/20 A301 RMK A01 T02920201  RH  058%=      5-min Rain = 0
KSE2 141509Z 23002KT 29/20 A301 RMK A01 T02920200  RH  057%=      5-min Rain = 0
KSE2 141510Z 21002KT 29/20 A301 RMK A01 T02920200  RH  058%=      5-min Rain = 0
KSE2 141511Z 24001KT 29/20 A301 RMK A01 T02910199  RH  058%=      5-min Rain = 0
KSE2 141512Z 31001KT 29/20 A301 RMK A01 T02910199  RH  058%=      5-min Rain = 0
KSE2 141513Z 29001KT 29/20 A3011 RMK A01 T02900200  RH  058%=      5-min Rain = 0
KSE2 141514Z 21001KT 29/20 A3011 RMK A01 T02900200  RH  058%=      5-min Rain = 0
KSE2 141515Z 18001KT 29/20 A3011 RMK A01 T02900197  RH  058%=      5-min Rain = 0
KSE2 141516Z 16002KT 29/20 A3011 RMK A01 T02910197  RH  057%=      5-min Rain = 0
KSE2 141517Z 16001KT 29/20 A3011 RMK A01 T02910197  RH  057%=      5-min Rain = 0
KSE2 141518Z 18000KT 29/20 A3011 RMK A01 T02920197  RH  057%=      5-min Rain = 0
KSE2 141519Z 20002KT 29/20 A3011 RMK A01 T02930198  RH  057%=      5-min Rain = 0
KSE2 141520Z 23001KT 30/20 A3011 RMK A01 T02950200  RH  057%=      5-min Rain = 0
KSE2 141521Z 23003KT 30/20 A3011 RMK A01 T02970200  RH  056%=      5-min Rain = 0
KSE2 141522Z 23004KT 30/20 A3011 RMK A01 T02970198  RH  056%=      5-min Rain = 0
KSE2 141523Z 23003KT 30/20 A3011 RMK A01 T02960197  RH  055%=      5-min Rain = 0
KSE2 141524Z 24004KT 30/20 A3011 RMK A01 T02960197  RH  056%=      5-min Rain = 0
KSE2 141525Z 26004KT 30/20 A3011 RMK A01 T02960196  RH  055%=      5-min Rain = 0
KSE2 141526Z 26002KT 30/20 A3011 RMK A01 T02950196  RH  055%=      5-min Rain = 0
KSE2 141527Z 25003KT 30/20 A3011 RMK A01 T02960195  RH  055%=      5-min Rain = 0
KSE2 141528Z 26002KT 30/20 A3011 RMK A01 T02950196  RH  055%=      5-min Rain = 0
KSE2 141529Z 25002KT 30/20 A3011 RMK A01 T02960196  RH  055%=      5-min Rain = 0
KSE2 141530Z 26003KT 30/20 A3011 RMK A01 T02970196  RH  055%=      5-min Rain = 0
KSE2 141531Z 24003KT 30/20 A3011 RMK A01 T02970196  RH  055%=      5-min Rain = 0
KSE2 141532Z 25002KT 30/20 A3011 RMK A01 T02960196  RH  055%=      5-min Rain = 0
KSE2 141533Z 25002KT 30/20 A3011 RMK A01 T02950197  RH  055%=      5-min Rain = 0
KSE2 141534Z 23001KT 29/20 A3011 RMK A01 T02940196  RH  056%=      5-min Rain = 0
KSE2 141535Z 19001KT 29/20 A3011 RMK A01 T02940196  RH  056%=      5-min Rain = 0
KSE2 141536Z 14000KT 29/20 A3011 RMK A01 T02940196  RH  056%=      5-min Rain = 0
KSE2 141537Z 00000KT 29/20 A3011 RMK A01 T02930195  RH  056%=      5-min Rain = 0
KSE2 141538Z 00000KT 29/20 A3011 RMK A01 T02930195  RH  056%=      5-min Rain = 0
KSE2 141539Z 00000KT 29/20 A3011 RMK A01 T02930195  RH  056%=      5-min Rain = 0
KSE2 141540Z 02000KT 29/19 A3011 RMK A01 T02920194  RH  055%=      5-min Rain = 0
KSE2 141541Z 02000KT 29/19 A3011 RMK A01 T02930194  RH  055%=      5-min Rain = 0
KSE2 141542Z 05000KT 29/20 A3011 RMK A01 T02930195  RH  056%=      5-min Rain = 0
KSE2 141543Z 02001KT 29/20 A3011 RMK A01 T02930195  RH  056%=      5-min Rain = 0
KSE2 141544Z 03001KT 29/20 A3011 RMK A01 T02930195  RH  056%=      5-min Rain = 0
KSE2 141545Z 05002KT 29/20 A3011 RMK A01 T02940195  RH  055%=      5-min Rain = 0
KSE2 141546Z 07002KT 29/20 A3011 RMK A01 T02940195  RH  055%=      5-min Rain = 0
KSE2 141547Z 07002KT 29/20 A3011 RMK A01 T02940196  RH  055%=      5-min Rain = 0
KSE2 141548Z 07001KT 29/20 A3011 RMK A01 T02940195  RH  055%=      5-min Rain = 0
KSE2 141549Z 07001KT 29/20 A3011 RMK A01 T02940197  RH  056%=      5-min Rain = 0
KSE2 141550Z 08002KT 30/20 A3011 RMK A01 T02950195  RH  055%=      5-min Rain = 0
KSE2 141551Z 06001KT 30/20 A3011 RMK A01 T02960195  RH  055%=      5-min Rain = 0
KSE2 141552Z 05001KT 30/20 A3011 RMK A01 T02950195  RH  055%=      5-min Rain = 0
KSE2 141553Z 06000KT 30/20 A3011 RMK A01 T02960195  RH  055%=      5-min Rain = 0
KSE2 141554Z 10001KT 30/20 A3011 RMK A01 T02970195  RH  054%=      5-min Rain = 0
KSE2 141555Z 11001KT 30/20 A3011 RMK A01 T02980195  RH  054%=      5-min Rain = 0
KSE2 141556Z 14001KT 30/20 A3011 RMK A01 T03000196  RH  054%=      5-min Rain = 0
KSE2 141557Z 12000KT 30/20 A3011 RMK A01 T03020195  RH  053%=      5-min Rain = 0
KSE2 141558Z 34001KT 30/20 A3011 RMK A01 T03040197  RH  053%=      5-min Rain = 0
KSE2 141559Z 32001KT 31/20 A3011 RMK A01 T03070197  RH  052%=      5-min Rain = 0
KSE2 141600Z 22001KT 31/20 A3011 RMK A01 T03100199  RH  051%=      5-min Rain = 0
KSE2 141601Z 21002KT 31/20 A3011 RMK A01 T03140199  RH  050%=      5-min Rain = 0
KSE2 141602Z 21003KT 32/20 A3011 RMK A01 T03150197  RH  050%=      5-min Rain = 0
KSE2 141603Z 24002KT 31/19 A3011 RMK A01 T03120194  RH  050%=      5-min Rain = 0
KSE2 141604Z 29002KT 31/19 A3011 RMK A01 T03100193  RH  050%=      5-min Rain = 0
KSE2 141605Z 34001KT 31/19 A3011 RMK A01 T03080193  RH  050%=      5-min Rain = 0
KSE2 141606Z 35000KT 31/20 A3011 RMK A01 T03100195  RH  050%=      5-min Rain = 0
KSE2 141607Z 32001KT 31/20 A3011 RMK A01 T03120195  RH  050%=      5-min Rain = 0
KSE2 141608Z 29001KT 31/20 A3011 RMK A01 T03120195  RH  050%=      5-min Rain = 0
KSE2 141609Z 15002KT 31/20 A3011 RMK A01 T03120195  RH  050%=      5-min Rain = 0
KSE2 141610Z 15002KT 31/19 A3011 RMK A01 T03130194  RH  049%=      5-min Rain = 0
KSE2 141611Z 17002KT 31/19 A3011 RMK A01 T03140192  RH  048%=      5-min Rain = 0
KSE2 141612Z 17002KT 31/19 A3011 RMK A01 T03140191  RH  048%=      5-min Rain = 0
KSE2 141613Z 23002KT 32/19 A3011 RMK A01 T03150190  RH  047%=      5-min Rain = 0
KSE2 141614Z 24002KT 32/19 A3011 RMK A01 T03150188  RH  047%=      5-min Rain = 0
KSE2 141615Z 21003KT 32/19 A3011 RMK A01 T03150186  RH  046%=      5-min Rain = 0
KSE2 141616Z 17002KT 32/19 A3011 RMK A01 T03160185  RH  046%=      5-min Rain = 0
KSE2 141617Z 19002KT 32/19 A3011 RMK A01 T03170185  RH  045%=      5-min Rain = 0
KSE2 141618Z 13001KT 32/19 A3011 RMK A01 T03200188  RH  046%=      5-min Rain = 0
KSE2 141619Z 20001KT 32/19 A3011 RMK A01 T03220191  RH  046%=      5-min Rain = 0
KSE2 141620Z 22003KT 32/19 A3011 RMK A01 T03240188  RH  045%=      5-min Rain = 0
KSE2 141621Z 24004KT 32/19 A3011 RMK A01 T03220185  RH  044%=      5-min Rain = 0
KSE2 141622Z 26002KT 32/18 A3012 RMK A01 T03190184  RH  045%=      5-min Rain = 0
KSE2 141623Z 26002KT 32/18 A3012 RMK A01 T03180184  RH  045%=      5-min Rain = 0
KSE2 141624Z 21003KT 32/19 A3012 RMK A01 T03200186  RH  045%=      5-min Rain = 0
KSE2 141625Z 22002KT 32/19 A3012 RMK A01 T03220186  RH  045%=      5-min Rain = 0
KSE2 141626Z 14001KT 32/19 A3012 RMK A01 T03230189  RH  045%=      5-min Rain = 0
KSE2 141627Z 12002KT 32/18 A3012 RMK A01 T03230183  RH  043%=      5-min Rain = 0
KSE2 141628Z 11003KT 32/18 A3012 RMK A01 T03230181  RH  043%=      5-min Rain = 0
KSE2 141629Z 13003KT 32/18 A3012 RMK A01 T03240177  RH  042%=      5-min Rain = 0
KSE2 141630Z 12003KT 32/18 A3012 RMK A01 T03210175  RH  042%=      5-min Rain = 0
KSE2 141631Z 13002KT 32/17 A3011 RMK A01 T03200172  RH  041%=      5-min Rain = 0
KSE2 141632Z 11004KT 32/18 A3011 RMK A01 T03190176  RH  042%=      5-min Rain = 0
KSE2 141633Z 10004KT 32/18 A3011 RMK A01 T03200175  RH  042%=      5-min Rain = 0
KSE2 141634Z 11003KT 32/17 A3011 RMK A01 T03200171  RH  041%=      5-min Rain = 0
KSE2 141635Z 13003KT 32/17 A3011 RMK A01 T03210168  RH  040%=      5-min Rain = 0
KSE2 141636Z 14002KT 32/17 A3011 RMK A01 T03230172  RH  040%=      5-min Rain = 0
KSE2 141637Z 19002KT 33/17 A3011 RMK A01 T03250172  RH  040%=      5-min Rain = 0
KSE2 141638Z 14002KT 33/18 A3011 RMK A01 T03270176  RH  041%=      5-min Rain = 0
KSE2 141639Z 10004KT 33/18 A3011 RMK A01 T03300177  RH  040%=      5-min Rain = 0
KSE2 141640Z 10004KT 33/18 A3011 RMK A01 T03270177  RH  041%=      5-min Rain = 0
KSE2 141641Z 11005KT 32/18 A3011 RMK A01 T03240176  RH  041%=      5-min Rain = 0
KSE2 141642Z 12004KT 32/18 A3011 RMK A01 T03210177  RH  042%=      5-min Rain = 0
KSE2 141643Z 15003KT 32/18 A3012 RMK A01 T03180175  RH  042%=      5-min Rain = 0
KSE2 141644Z 15003KT 32/18 A3011 RMK A01 T03180176  RH  043%=      5-min Rain = 0
KSE2 141645Z 13003KT 32/18 A3012 RMK A01 T03200175  RH  042%=      5-min Rain = 0
KSE2 141646Z 13002KT 32/18 A3012 RMK A01 T03240175  RH  041%=      5-min Rain = 0
KSE2 141647Z 11005KT 33/17 A3012 RMK A01 T03280174  RH  040%=      5-min Rain = 0
KSE2 141648Z 09005KT 33/17 A3012 RMK A01 T03290172  RH  039%=      5-min Rain = 0
KSE2 141649Z 11005KT 32/17 A3012 RMK A01 T03240173  RH  041%=      5-min Rain = 0
KSE2 141650Z 14005KT 32/17 A3012 RMK A01 T03230174  RH  041%=      5-min Rain = 0
KSE2 141651Z 14004KT 32/17 A3012 RMK A01 T03210173  RH  041%=      5-min Rain = 0
KSE2 141652Z 12003KT 32/17 A3012 RMK A01 T03190172  RH  041%=      5-min Rain = 0
KSE2 141653Z 11002KT 32/17 A3012 RMK A01 T03180173  RH  042%=      5-min Rain = 0
KSE2 141654Z 12004KT 32/17 A3012 RMK A01 T03190172  RH  041%=      5-min Rain = 0
KSE2 141655Z 14003KT 32/17 A3012 RMK A01 T03190171  RH  041%=      5-min Rain = 0
KSE2 141656Z 13001KT 32/17 A3012 RMK A01 T03180171  RH  041%=      5-min Rain = 0
KSE2 141657Z 12004KT 32/17 A3012 RMK A01 T03190173  RH  042%=      5-min Rain = 0
KSE2 141658Z 13004KT 32/17 A3012 RMK A01 T03220173  RH  041%=      5-min Rain = 0
KSE2 141659Z 14004KT 32/17 A3012 RMK A01 T03230173  RH  041%=      5-min Rain = 0
KSE2 141700Z 11004KT 32/17 A3012 RMK A01 T03230174  RH  041%=      5-min Rain = 0
KSE2 141701Z 09003KT 32/18 A3011 RMK A01 T03210178  RH  043%=      5-min Rain = 0
KSE2 141702Z 13004KT 32/18 A3011 RMK A01 T03200175  RH  042%=      5-min Rain = 0
KSE2 141703Z 12004KT 32/17 A3011 RMK A01 T03230173  RH  041%=      5-min Rain = 0
KSE2 141704Z 12004KT 32/17 A3011 RMK A01 T03240172  RH  040%=      5-min Rain = 0
KSE2 141705Z 10002KT 32/17 A3011 RMK A01 T03240172  RH  040%=      5-min Rain = 0
KSE2 141706Z 07001KT 33/17 A3011 RMK A01 T03250173  RH  040%=      5-min Rain = 0
KSE2 141707Z 07003KT 33/18 A3011 RMK A01 T03290180  RH  041%=      5-min Rain = 0
KSE2 141708Z 09004KT 33/18 A3011 RMK A01 T03330183  RH  041%=      5-min Rain = 0
KSE2 141709Z 09004KT 33/18 A3011 RMK A01 T03330180  RH  040%=      5-min Rain = 0
KSE2 141710Z 06005KT 33/18 A3011 RMK A01 T03310178  RH  040%=      5-min Rain = 0
KSE2 141711Z 05004KT 33/18 A3011 RMK A01 T03290175  RH  040%=      5-min Rain = 0
KSE2 141712Z 04003KT 33/17 A3011 RMK A01 T03270173  RH  040%=      5-min Rain = 0
KSE2 141713Z 01003KT 33/17 A3011 RMK A01 T03260172  RH  040%=      5-min Rain = 0
KSE2 141714Z 35002KT 33/17 A3011 RMK A01 T03270171  RH  039%=      5-min Rain = 0
KSE2 141715Z 33003KT 33/17 A3011 RMK A01 T03270170  RH  039%=      5-min Rain = 0
KSE2 141716Z 34003KT 33/17 A3011 RMK A01 T03280173  RH  039%=      5-min Rain = 0
KSE2 141717Z 33002KT 33/18 A3011 RMK A01 T03310175  RH  039%=      5-min Rain = 0
KSE2 141718Z 31002KT 33/17 A3011 RMK A01 T03340173  RH  038%=      5-min Rain = 0
KSE2 141719Z 32001KT 33/17 A3011 RMK A01 T03340172  RH  038%=      5-min Rain = 0
KSE2 141720Z 08004KT 33/17 A3011 RMK A01 T03340174  RH  039%=      5-min Rain = 0
KSE2 141721Z 06004KT 33/18 A3011 RMK A01 T03330175  RH  039%=      5-min Rain = 0
KSE2 141722Z 06006KT 34/17 A3011 RMK A01 T03350174  RH  038%=      5-min Rain = 0
KSE2 141723Z 04003KT 33/17 A3011 RMK A01 T03330170  RH  038%=      5-min Rain = 0
KSE2 141724Z 33002KT 33/17 A3011 RMK A01 T03320171  RH  038%=      5-min Rain = 0
KSE2 141725Z 30001KT 33/17 A3011 RMK A01 T03310172  RH  039%=      5-min Rain = 0
KSE2 141726Z 28000KT 33/17 A3011 RMK A01 T03320173  RH  039%=      5-min Rain = 0
KSE2 141727Z 05005KT 34/18 A3011 RMK A01 T03360175  RH  038%=      5-min Rain = 0
KSE2 141728Z 04003KT 34/17 A3011 RMK A01 T03360173  RH  038%=      5-min Rain = 0
KSE2 141729Z 03003KT 34/17 A3011 RMK A01 T03350172  RH  038%=      5-min Rain = 0
KSE2 141730Z 06005KT 34/18 A3011 RMK A01 T03350175  RH  038%=      5-min Rain = 0
KSE2 141731Z 07004KT 34/18 A3011 RMK A01 T03400178  RH  038%=      5-min Rain = 0
KSE2 141732Z 00005KT 35/18 A3011 RMK A01 T03450177  RH  037%=      5-min Rain = 0
KSE2 141733Z 36004KT 35/18 A3011 RMK A01 T03470175  RH  036%=      5-min Rain = 0
KSE2 141734Z 03005KT 35/17 A3011 RMK A01 T03460173  RH  036%=      5-min Rain = 0
KSE2 141735Z 03003KT 34/17 A3011 RMK A01 T03420171  RH  036%=      5-min Rain = 0
KSE2 141736Z 08002KT 34/17 A3011 RMK A01 T03380169  RH  036%=      5-min Rain = 0
KSE2 141737Z 10002KT 34/17 A3011 RMK A01 T03350168  RH  037%=      5-min Rain = 0
KSE2 141738Z 10006KT 34/17 A3011 RMK A01 T03360169  RH  037%=      5-min Rain = 0
KSE2 141739Z 07004KT 34/17 A3011 RMK A01 T03390172  RH  037%=      5-min Rain = 0
KSE2 141740Z 06006KT 34/18 A3011 RMK A01 T03420176  RH  037%=      5-min Rain = 0
KSE2 141741Z 10004KT 34/17 A3011 RMK A01 T03400174  RH  037%=      5-min Rain = 0
KSE2 141742Z 16004KT 34/17 A301 RMK A01 T03360172  RH  038%=      5-min Rain = 0
KSE2 141743Z 06004KT 34/17 A3011 RMK A01 T03350174  RH  038%=      5-min Rain = 0
KSE2 141744Z 03004KT 33/18 A3011 RMK A01 T03340175  RH  039%=      5-min Rain = 0
KSE2 141745Z 05004KT 33/17 A301 RMK A01 T03330174  RH  039%=      5-min Rain = 0
KSE2 141746Z 02003KT 33/17 A301 RMK A01 T03320174  RH  039%=      5-min Rain = 0
KSE2 141747Z 03003KT 34/18 A301 RMK A01 T03350175  RH  039%=      5-min Rain = 0
KSE2 141748Z 02003KT 34/18 A301 RMK A01 T03370175  RH  038%=      5-min Rain = 0
KSE2 141749Z 03007KT 34/17 A301 RMK A01 T03390174  RH  038%=      5-min Rain = 0
KSE2 141750Z 04007KT 34/17 A301 RMK A01 T03420174  RH  037%=      5-min Rain = 0
KSE2 141751Z 06005KT 34/17 A301 RMK A01 T03400172  RH  037%=      5-min Rain = 0
KSE2 141752Z 04005KT 34/17 A301 RMK A01 T03400173  RH  037%=      5-min Rain = 0
KSE2 141753Z 06004KT 34/17 A301 RMK A01 T03420172  RH  036%=      5-min Rain = 0
KSE2 141754Z 01003KT 34/17 A301 RMK A01 T03410173  RH  037%=      5-min Rain = 0
KSE2 141755Z 07004KT 34/17 A301 RMK A01 T03410174  RH  037%=      5-min Rain = 0
KSE2 141756Z 10005KT 34/17 A301 RMK A01 T03400172  RH  037%=      5-min Rain = 0
KSE2 141757Z 11001KT 34/17 A301 RMK A01 T03380171  RH  037%=      5-min Rain = 0
KSE2 141758Z 13001KT 34/17 A301 RMK A01 T03370172  RH  037%=      5-min Rain = 0
KSE2 141759Z 24002KT 34/17 A301 RMK A01 T03390173  RH  037%=      5-min Rain = 0
KSE2 141800Z 24003KT 34/17 A301 RMK A01 T03390174  RH  037%=      5-min Rain = 0
KSE2 141801Z 19001KT 34/18 A301 RMK A01 T03400175  RH  037%=      5-min Rain = 0
KSE2 141802Z 35003KT 34/18 A301 RMK A01 T03440176  RH  037%=      5-min Rain = 0
KSE2 141803Z 04005KT 35/18 A301 RMK A01 T03470177  RH  037%=      5-min Rain = 0
KSE2 141804Z 02007KT 35/18 A301 RMK A01 T03460178  RH  037%=      5-min Rain = 0
KSE2 141805Z 01008KT 34/18 A301 RMK A01 T03420176  RH  037%=      5-min Rain = 0
KSE2 141806Z 00007KT 34/18 A301 RMK A01 T03390177  RH  038%=      5-min Rain = 0
KSE2 141807Z 03007KT 34/18 A301 RMK A01 T03390177  RH  038%=      5-min Rain = 0
KSE2 141808Z 07004KT 34/18 A301 RMK A01 T03380176  RH  038%=      5-min Rain = 0
KSE2 141809Z 05001KT 34/18 A301 RMK A01 T03360175  RH  038%=      5-min Rain = 0
KSE2 141810Z 03002KT 34/18 A301 RMK A01 T03370176  RH  038%=      5-min Rain = 0
KSE2 141811Z 05002KT 34/18 A301 RMK A01 T03410179  RH  038%=      5-min Rain = 0
KSE2 141812Z 01004KT 35/18 A301 RMK A01 T03460181  RH  038%=      5-min Rain = 0
KSE2 141813Z 03008KT 35/18 A3009 RMK A01 T03510182  RH  037%=      5-min Rain = 0
KSE2 141814Z 04009KT 35/18 A3009 RMK A01 T03540182  RH  036%=      5-min Rain = 0
KSE2 141815Z 03010KT 35/18 A301 RMK A01 T03520180  RH  036%=      5-min Rain = 0
KSE2 141816Z 03008KT 35/18 A301 RMK A01 T03470178  RH  037%=      5-min Rain = 0
KSE2 141817Z 04008KT 34/18 A301 RMK A01 T03430179  RH  038%=      5-min Rain = 0
KSE2 141818Z 01007KT 34/18 A3009 RMK A01 T03420178  RH  038%=      5-min Rain = 0
KSE2 141819Z 01006KT 34/18 A301 RMK A01 T03420179  RH  038%=      5-min Rain = 0
KSE2 141820Z 02005KT 34/18 A301 RMK A01 T03440178  RH  038%=      5-min Rain = 0
KSE2 141821Z 02003KT 34/18 A301 RMK A01 T03430180  RH  038%=      5-min Rain = 0
KSE2 141822Z 01002KT 34/18 A3009 RMK A01 T03430178  RH  038%=      5-min Rain = 0
KSE2 141823Z 35002KT 34/18 A3009 RMK A01 T03420177  RH  038%=      5-min Rain = 0
KSE2 141824Z 32001KT 34/18 A3009 RMK A01 T03410178  RH  038%=      5-min Rain = 0
KSE2 141825Z 03002KT 34/18 A3009 RMK A01 T03410179  RH  038%=      5-min Rain = 0
KSE2 141826Z 02003G8KT 34/18 A3009 RMK A01 T03410179  RH  038%=      5-min Rain = 0
KSE2 141827Z 01006KT 34/18 A3009 RMK A01 T03430179  RH  038%=      5-min Rain = 0
KSE2 141828Z 04004KT 34/18 A3009 RMK A01 T03430179  RH  038%=      5-min Rain = 0
KSE2 141829Z 07010KT 34/18 A3009 RMK A01 T03440181  RH  038%=      5-min Rain = 0
KSE2 141830Z 07009KT 35/18 A3009 RMK A01 T03450179  RH  037%=      5-min Rain = 0
KSE2 141831Z 07008KT 34/18 A3009 RMK A01 T03430178  RH  038%=      5-min Rain = 0
KSE2 141832Z 08005KT 34/18 A3009 RMK A01 T03410177  RH  038%=      5-min Rain = 0
KSE2 141833Z 09005KT 34/18 A3009 RMK A01 T03380177  RH  038%=      5-min Rain = 0
KSE2 141834Z 04007KT 34/18 A3009 RMK A01 T03390178  RH  039%=      5-min Rain = 0
KSE2 141835Z 01006KT 34/18 A3008 RMK A01 T03420180  RH  038%=      5-min Rain = 0
KSE2 141836Z 03004KT 35/18 A3008 RMK A01 T03450180  RH  038%=      5-min Rain = 0
KSE2 141837Z 07005KT 35/18 A3008 RMK A01 T03460182  RH  038%=      5-min Rain = 0
KSE2 141838Z 07005KT 35/18 A3008 RMK A01 T03480180  RH  037%=      5-min Rain = 0
KSE2 141839Z 09004KT 35/18 A3008 RMK A01 T03450178  RH  037%=      5-min Rain = 0
KSE2 141840Z 09003KT 34/18 A3008 RMK A01 T03410175  RH  037%=      5-min Rain = 0
KSE2 141841Z 05004KT 34/18 A3008 RMK A01 T03400178  RH  038%=      5-min Rain = 0
KSE2 141842Z 05007KT 34/18 A3008 RMK A01 T03420177  RH  037%=      5-min Rain = 0
KSE2 141843Z 06006KT 34/18 A3008 RMK A01 T03430176  RH  037%=      5-min Rain = 0
KSE2 141844Z 06004KT 34/18 A3008 RMK A01 T03440176  RH  037%=      5-min Rain = 0
KSE2 141845Z 05006KT 35/18 A3008 RMK A01 T03450177  RH  037%=      5-min Rain = 0
KSE2 141846Z 06008KT 35/18 A3008 RMK A01 T03500179  RH  036%=      5-min Rain = 0
KSE2 141847Z 04005KT 35/18 A3008 RMK A01 T03500176  RH  036%=      5-min Rain = 0
KSE2 141848Z 05006KT 35/18 A3008 RMK A01 T03480177  RH  036%=      5-min Rain = 0
KSE2 141849Z 05005KT 35/18 A3007 RMK A01 T03470176  RH  036%=      5-min Rain = 0
KSE2 141850Z 06003KT 35/18 A3007 RMK A01 T03460175  RH  036%=      5-min Rain = 0
KSE2 141851Z 04005KT 35/18 A3007 RMK A01 T03450175  RH  037%=      5-min Rain = 0
KSE2 141852Z 06008KT 34/18 A3007 RMK A01 T03440175  RH  037%=      5-min Rain = 0
KSE2 141853Z 04006KT 35/18 A3007 RMK A01 T03460177  RH  037%=      5-min Rain = 0
KSE2 141854Z 01007KT 35/17 A3007 RMK A01 T03480174  RH  036%=      5-min Rain = 0
KSE2 141855Z 02005KT 35/17 A3007 RMK A01 T03470173  RH  036%=      5-min Rain = 0
KSE2 141856Z 04005KT 35/18 A3007 RMK A01 T03490177  RH  036%=      5-min Rain = 0
KSE2 141857Z 04002KT 35/18 A3007 RMK A01 T03510175  RH  035%=      5-min Rain = 0
KSE2 141858Z 36006KT 35/18 A3007 RMK A01 T03510175  RH  035%=      5-min Rain = 0
KSE2 141859Z 03007KT 35/18 A3006 RMK A01 T03530176  RH  035%=      5-min Rain = 0
KSE2 141900Z 05008KT 36/18 A3006 RMK A01 T03550177  RH  035%=      5-min Rain = 0
KSE2 141901Z 05006KT 36/18 A3006 RMK A01 T03570177  RH  035%=      5-min Rain = 0
KSE2 141902Z 06008KT 36/18 A3007 RMK A01 T03570177  RH  035%=      5-min Rain = 0
KSE2 141903Z 06006KT 36/18 A3007 RMK A01 T03580177  RH  034%=      5-min Rain = 0
KSE2 141904Z 05005G10KT 36/18 A3007 RMK A01 T03560176  RH  035%=      5-min Rain = 0
KSE2 141905Z 04007G13KT 36/18 A3006 RMK A01 T03580177  RH  034%=      5-min Rain = 0
KSE2 141906Z 05010KT 36/18 A3006 RMK A01 T03580177  RH  034%=      5-min Rain = 0
KSE2 141907Z 04006KT 35/17 A3007 RMK A01 T03510174  RH  035%=      5-min Rain = 0
KSE2 141908Z 02008KT 35/18 A3007 RMK A01 T03490175  RH  036%=      5-min Rain = 0
KSE2 141909Z 01013KT 35/18 A3006 RMK A01 T03490175  RH  036%=      5-min Rain = 0
KSE2 141910Z 04008KT 35/18 A3006 RMK A01 T03490175  RH  036%=      5-min Rain = 0
KSE2 141911Z 05008KT 35/18 A3006 RMK A01 T03480175  RH  036%=      5-min Rain = 0
KSE2 141912Z 04009KT 35/18 A3006 RMK A01 T03460175  RH  036%=      5-min Rain = 0
KSE2 141913Z 04008KT 35/18 A3006 RMK A01 T03480176  RH  036%=      5-min Rain = 0
KSE2 141914Z 03005KT 35/17 A3006 RMK A01 T03470174  RH  036%=      5-min Rain = 0
KSE2 141915Z 06007KT 35/18 A3006 RMK A01 T03460175  RH  036%=      5-min Rain = 0
KSE2 141916Z 07008KT 35/18 A3006 RMK A01 T03490176  RH  036%=      5-min Rain = 0
KSE2 141917Z 08006KT 35/18 A3006 RMK A01 T03490175  RH  036%=      5-min Rain = 0
KSE2 141918Z 09005KT 35/18 A3006 RMK A01 T03510176  RH  036%=      5-min Rain = 0
KSE2 141919Z 12005KT 35/18 A3006 RMK A01 T03520175  RH  035%=      5-min Rain = 0
KSE2 141920Z 15004KT 35/17 A3006 RMK A01 T03520174  RH  035%=      5-min Rain = 0
KSE2 141921Z 12003KT 35/17 A3006 RMK A01 T03490173  RH  035%=      5-min Rain = 0
KSE2 141922Z 09003KT 35/17 A3006 RMK A01 T03490174  RH  035%=      5-min Rain = 0
KSE2 141923Z 04002KT 35/18 A3006 RMK A01 T03530176  RH  035%=      5-min Rain = 0
KSE2 141924Z 07004KT 35/18 A3006 RMK A01 T03520175  RH  035%=      5-min Rain = 0
KSE2 141925Z 07009KT 35/18 A3006 RMK A01 T03540178  RH  035%=      5-min Rain = 0
KSE2 141926Z 06008KT 36/18 A3006 RMK A01 T03560178  RH  035%=      5-min Rain = 0
KSE2 141927Z 08006KT 36/18 A3006 RMK A01 T03570178  RH  035%=      5-min Rain = 0
KSE2 141928Z 06009KT 36/18 A3006 RMK A01 T03570176  RH  035%=      5-min Rain = 0
KSE2 141929Z 05005KT 35/18 A3006 RMK A01 T03520175  RH  035%=      5-min Rain = 0
KSE2 141930Z 01006KT 35/18 A3005 RMK A01 T03540177  RH  035%=      5-min Rain = 0
KSE2 141931Z 00006KT 36/18 A3005 RMK A01 T03550176  RH  035%=      5-min Rain = 0
KSE2 141932Z 06005KT 36/18 A3005 RMK A01 T03550178  RH  035%=      5-min Rain = 0
KSE2 141933Z 07004KT 35/18 A3005 RMK A01 T03540175  RH  035%=      5-min Rain = 0
KSE2 141934Z 05008KT 35/18 A3005 RMK A01 T03530177  RH  035%=      5-min Rain = 0
KSE2 141935Z 07009KT 36/18 A3005 RMK A01 T03560178  RH  035%=      5-min Rain = 0
KSE2 141936Z 08009KT 36/18 A3005 RMK A01 T03570177  RH  035%=      5-min Rain = 0
KSE2 141937Z 08010KT 36/18 A3005 RMK A01 T03570175  RH  034%=      5-min Rain = 0
KSE2 141938Z 07007KT 35/17 A3005 RMK A01 T03530174  RH  035%=      5-min Rain = 0
KSE2 141939Z 06006KT 35/18 A3005 RMK A01 T03530176  RH  035%=      5-min Rain = 0
KSE2 141940Z 05006KT 36/18 A3005 RMK A01 T03560176  RH  034%=      5-min Rain = 0
KSE2 141941Z 04008KT 36/18 A3005 RMK A01 T03560177  RH  035%=      5-min Rain = 0
KSE2 141942Z 05004KT 35/17 A3005 RMK A01 T03520173  RH  035%=      5-min Rain = 0
KSE2 141943Z 26000KT 35/17 A3005 RMK A01 T03480173  RH  035%=      5-min Rain = 0
KSE2 141944Z 34001KT 35/17 A3005 RMK A01 T03480173  RH  035%=      5-min Rain = 0
KSE2 141945Z 04006KT 35/18 A3005 RMK A01 T03500175  RH  035%=      5-min Rain = 0
KSE2 141946Z 02008KT 35/18 A3005 RMK A01 T03510175  RH  035%=      5-min Rain = 0
KSE2 141947Z 02005KT 35/18 A3004 RMK A01 T03510175  RH  035%=      5-min Rain = 0
KSE2 141948Z 02007KT 35/18 A3004 RMK A01 T03510176  RH  036%=      5-min Rain = 0
KSE2 141949Z 02004KT 35/18 A3004 RMK A01 T03510175  RH  035%=      5-min Rain = 0
KSE2 141950Z 01003KT 35/18 A3004 RMK A01 T03510176  RH  036%=      5-min Rain = 0
KSE2 141951Z 02003KT 35/18 A3004 RMK A01 T03540177  RH  035%=      5-min Rain = 0
KSE2 141952Z 05004KT 36/18 A3004 RMK A01 T03570180  RH  035%=      5-min Rain = 0
KSE2 141953Z 11003KT 36/18 A3004 RMK A01 T03590178  RH  034%=      5-min Rain = 0
KSE2 141954Z 13004KT 36/18 A3004 RMK A01 T03560176  RH  035%=      5-min Rain = 0
KSE2 141955Z 10005KT 35/18 A3004 RMK A01 T03520175  RH  035%=      5-min Rain = 0
KSE2 141956Z 09008KT 35/18 A3004 RMK A01 T03520177  RH  036%=      5-min Rain = 0
KSE2 141957Z 08008KT 35/18 A3004 RMK A01 T03530176  RH  035%=      5-min Rain = 0
KSE2 141958Z 07007G12KT 35/18 A3004 RMK A01 T03520177  RH  036%=      5-min Rain = 0
KSE2 141959Z 05009KT 35/18 A3003 RMK A01 T03510176  RH  036%=      5-min Rain = 0
KSE2 142000Z 06010KT 35/18 A3003 RMK A01 T03500176  RH  036%=      5-min Rain = 0
KSE2 142001Z 05008KT 35/18 A3003 RMK A01 T03480176  RH  036%=      5-min Rain = 0
KSE2 142002Z 04008KT 35/18 A3003 RMK A01 T03480175  RH  036%=      5-min Rain = 0
KSE2 142003Z 04007KT 35/18 A3003 RMK A01 T03480175  RH  036%=      5-min Rain = 0
KSE2 142004Z 03005KT 35/18 A3003 RMK A01 T03480176  RH  036%=      5-min Rain = 0
KSE2 142005Z 05006KT 35/18 A3004 RMK A01 T03480175  RH  036%=      5-min Rain = 0
KSE2 142006Z 04004KT 35/18 A3004 RMK A01 T03460175  RH  036%=      5-min Rain = 0
KSE2 142007Z 07003KT 35/18 A3004 RMK A01 T03490177  RH  036%=      5-min Rain = 0
KSE2 142008Z 13002KT 35/18 A3003 RMK A01 T03520176  RH  035%=      5-min Rain = 0
KSE2 142009Z 11004KT 35/18 A3003 RMK A01 T03540177  RH  035%=      5-min Rain = 0
KSE2 142010Z 11001KT 35/18 A3003 RMK A01 T03540175  RH  035%=      5-min Rain = 0
KSE2 142011Z 25002KT 35/18 A3003 RMK A01 T03540175  RH  035%=      5-min Rain = 0
KSE2 142012Z 21002KT 36/18 A3003 RMK A01 T03560177  RH  035%=      5-min Rain = 0
KSE2 142013Z 07003KT 36/18 A3003 RMK A01 T03590178  RH  034%=      5-min Rain = 0
KSE2 142014Z 05008KT 36/18 A3003 RMK A01 T03620181  RH  035%=      5-min Rain = 0
KSE2 142015Z 07008KT 37/18 A3003 RMK A01 T03660181  RH  034%=      5-min Rain = 0
KSE2 142016Z 09008KT 37/18 A3003 RMK A01 T03670179  RH  033%=      5-min Rain = 0
KSE2 142017Z 06006KT 37/18 A3003 RMK A01 T03670181  RH  034%=      5-min Rain = 0
KSE2 142018Z 05007KT 37/18 A3003 RMK A01 T03670180  RH  033%=      5-min Rain = 0
KSE2 142019Z 05008KT 36/18 A3003 RMK A01 T03640179  RH  034%=      5-min Rain = 0
KSE2 142020Z 07010KT 36/18 A3003 RMK A01 T03610178  RH  034%=      5-min Rain = 0
KSE2 142021Z 06008KT 36/18 A3003 RMK A01 T03550177  RH  035%=      5-min Rain = 0
KSE2 142022Z 08007KT 35/18 A3003 RMK A01 T03520178  RH  036%=      5-min Rain = 0
KSE2 142023Z 09007KT 35/18 A3003 RMK A01 T03510177  RH  036%=      5-min Rain = 0
KSE2 142024Z 10005KT 35/18 A3003 RMK A01 T03490176  RH  036%=      5-min Rain = 0
KSE2 142025Z 11005KT 35/18 A3003 RMK A01 T03480177  RH  036%=      5-min Rain = 0
KSE2 142026Z 12008KT 35/18 A3003 RMK A01 T03510179  RH  036%=      5-min Rain = 0
KSE2 142027Z 12007KT 35/18 A3003 RMK A01 T03510177  RH  036%=      5-min Rain = 0
KSE2 142028Z 12006KT 35/18 A3003 RMK A01 T03480177  RH  036%=      5-min Rain = 0
KSE2 142029Z 14003KT 35/18 A3003 RMK A01 T03470177  RH  036%=      5-min Rain = 0
KSE2 142030Z 13003KT 35/18 A3003 RMK A01 T03470177  RH  037%=      5-min Rain = 0
KSE2 142031Z 08004KT 35/18 A3003 RMK A01 T03470178  RH  037%=      5-min Rain = 0
KSE2 142032Z 09005KT 35/18 A3003 RMK A01 T03480179  RH  037%=      5-min Rain = 0
KSE2 142033Z 12006KT 35/18 A3003 RMK A01 T03480179  RH  037%=      5-min Rain = 0
KSE2 142034Z 11006KT 35/18 A3003 RMK A01 T03470179  RH  037%=      5-min Rain = 0
KSE2 142035Z 11007KT 35/18 A3003 RMK A01 T03470179  RH  037%=      5-min Rain = 0
KSE2 142036Z 08005KT 35/18 A3003 RMK A01 T03460179  RH  037%=      5-min Rain = 0
KSE2 142037Z 08006KT 35/18 A3003 RMK A01 T03470179  RH  037%=      5-min Rain = 0
KSE2 142038Z 06006KT 35/18 A3003 RMK A01 T03460178  RH  037%=      5-min Rain = 0
KSE2 142039Z 07005KT 35/18 A3003 RMK A01 T03450178  RH  037%=      5-min Rain = 0
KSE2 142040Z 06005KT 35/18 A3003 RMK A01 T03450177  RH  037%=      5-min Rain = 0
KSE2 142041Z 07003KT 34/18 A3003 RMK A01 T03440177  RH  037%=      5-min Rain = 0
KSE2 142042Z 08003KT 34/18 A3003 RMK A01 T03430177  RH  037%=      5-min Rain = 0
KSE2 142043Z 08002KT 35/18 A3003 RMK A01 T03450179  RH  037%=      5-min Rain = 0
KSE2 142044Z 07004KT 35/18 A3003 RMK A01 T03460178  RH  037%=      5-min Rain = 0
KSE2 142045Z 06002KT 35/18 A3003 RMK A01 T03470178  RH  037%=      5-min Rain = 0
KSE2 142046Z 03004KT 35/18 A3003 RMK A01 T03460177  RH  037%=      5-min Rain = 0
KSE2 142047Z 01006KT 35/18 A3003 RMK A01 T03450177  RH  037%=      5-min Rain = 0
KSE2 142048Z 03004KT 35/18 A3003 RMK A01 T03450177  RH  037%=      5-min Rain = 0
KSE2 142049Z 36006KT 34/18 A3004 RMK A01 T03440177  RH  037%=      5-min Rain = 0
KSE2 142050Z 33008KT 34/18 A3004 RMK A01 T03430177  RH  037%=      5-min Rain = 0
KSE2 142051Z 31007KT 34/18 A3005 RMK A01 T03430178  RH  038%=      5-min Rain = 0
KSE2 142052Z 32015G22KT 34/18 A3005 RMK A01 T03430181  RH  038%=      5-min Rain = 0
KSE2 142053Z 32019KT 33/19 A3005 RMK A01 T03290186  RH  043%=      5-min Rain = 0
KSE2 142054Z 32016G21KT 31/19 A3005 RMK A01 T03120185  RH  047%=      5-min Rain = 0
KSE2 142055Z 31018G25KT 30/19 A3005 RMK A01 T03030186  RH  050%=      5-min Rain = 0
KSE2 142056Z 32017G26KT 30/19 A3005 RMK A01 T02960186  RH  051%=      5-min Rain = 0
KSE2 142057Z 31016G22KT 29/19 A3005 RMK A01 T02920187  RH  053%=      5-min Rain = 0
KSE2 142058Z 31018G26KT 29/19 A3005 RMK A01 T02880187  RH  054%=      5-min Rain = 0
KSE2 142059Z 32018G24KT 29/19 A3005 RMK A01 T02860188  RH  055%=      5-min Rain = 0
KSE2 142100Z 32017G24KT 28/19 A3006 RMK A01 T02840188  RH  056%=      5-min Rain = 0
KSE2 142101Z 32014KT 28/19 A3006 RMK A01 T02840189  RH  056%=      5-min Rain = 0
KSE2 142102Z 32013G20KT 28/19 A3006 RMK A01 T02830188  RH  056%=      5-min Rain = 0
KSE2 142103Z 31013G19KT 28/19 A3007 RMK A01 T02830189  RH  057%=      5-min Rain = 0
KSE2 142104Z 31014KT 28/19 A3007 RMK A01 T02820191  RH  058%=      5-min Rain = 0
KSE2 142105Z 31017G24KT 28/19 A3007 RMK A01 T02800193  RH  059%=      5-min Rain = 0
KSE2 142106Z 31015G20KT 28/20 A3007 RMK A01 T02760199  RH  063%=      5-min Rain = 0
KSE2 142107Z 30011KT 27/20 A3008 RMK A01 T02700203  RH  067%=      5-min Rain = 0
KSE2 142108Z 29010G17KT 27/21 A3008 RMK A01 T02650206  RH  070%=      5-min Rain = 0.01
KSE2 142109Z 30014G20KT 26/21 A3008 RMK A01 T02610206  RH  072%=      5-min Rain = 0.01
KSE2 142110Z 31013G20KT 26/21 A3008 RMK A01 T02570209  RH  075%=      5-min Rain = 0.02
KSE2 142111Z 31013G18KT 25/21 A3009 RMK A01 T02520211  RH  078%=      5-min Rain = 0.02
KSE2 142112Z 30010KT 25/21 A3009 RMK A01 T02480210  RH  079%=      5-min Rain = 0.02
KSE2 142113Z 30013G19KT 25/21 A3009 RMK A01 T02460211  RH  081%=      5-min Rain = 0.02
KSE2 142114Z 30011KT 25/21 A3009 RMK A01 T02450210  RH  081%=      5-min Rain = 0.02
KSE2 142115Z 30010KT 24/21 A3009 RMK A01 T02430210  RH  082%=      5-min Rain = 0.03
KSE2 142116Z 30011KT 24/21 A3009 RMK A01 T02420210  RH  083%=      5-min Rain = 0.03
KSE2 142117Z 30010G15KT 24/21 A301 RMK A01 T02400209  RH  082%=      5-min Rain = 0.04
KSE2 142118Z 29010KT 24/21 A301 RMK A01 T02400210  RH  084%=      5-min Rain = 0.02
KSE2 142119Z 29009KT 24/21 A301 RMK A01 T02370206  RH  083%=      5-min Rain = 0.03
KSE2 142120Z 29009KT 24/21 A301 RMK A01 T02350207  RH  084%=      5-min Rain = 0.04
KSE2 142121Z 29009KT 23/21 A301 RMK A01 T02330206  RH  085%=      5-min Rain = 0.02
KSE2 142122Z 27011G17KT 23/21 A301 RMK A01 T02320205  RH  085%=      5-min Rain = 0.02
KSE2 142123Z 26008KT 23/20 A301 RMK A01 T02330203  RH  084%=      5-min Rain = 0.02
KSE2 142124Z 25006KT 23/21 A301 RMK A01 T02340206  RH  085%=      5-min Rain = 0.01
KSE2 142125Z 25006KT 23/21 A301 RMK A01 T02340208  RH  085%=      5-min Rain = 0.02
KSE2 142126Z 27005KT 23/21 A301 RMK A01 T02330210  RH  087%=      5-min Rain = 0.02
KSE2 142127Z 26004KT 23/21 A301 RMK A01 T02310210  RH  088%=      5-min Rain = 0.02
KSE2 142128Z 24005KT 23/21 A3009 RMK A01 T02300205  RH  085%=      5-min Rain = 0.01
KSE2 142129Z 24003KT 23/20 A3009 RMK A01 T02300203  RH  085%=      5-min Rain = 0.01
KSE2 142130Z 23003KT 23/21 A3009 RMK A01 T02310206  RH  086%=      5-min Rain = 0.02
KSE2 142131Z 24006KT 23/20 A3009 RMK A01 T02310204  RH  085%=      5-min Rain = 0.01
KSE2 142132Z 24006KT 23/20 A3009 RMK A01 T02320198  RH  081%=      5-min Rain = 0.01
KSE2 142133Z 24006KT 23/20 A3009 RMK A01 T02340199  RH  081%=      5-min Rain = 0.01
KSE2 142134Z 23008KT 24/20 A3009 RMK A01 T02360198  RH  079%=      5-min Rain = 0.01
KSE2 142135Z 23007KT 24/20 A301 RMK A01 T02360202  RH  081%=      5-min Rain = 0.01
KSE2 142136Z 22006KT 24/20 A301 RMK A01 T02350203  RH  082%=      5-min Rain = 0.02
KSE2 142137Z 23004KT 23/20 A301 RMK A01 T02330203  RH  083%=      5-min Rain = 0.02
KSE2 142138Z 23003KT 23/21 A301 RMK A01 T02320206  RH  085%=      5-min Rain = 0.02
KSE2 142139Z 20004KT 23/21 A301 RMK A01 T02300205  RH  086%=      5-min Rain = 0.01
KSE2 142140Z 19008KT 23/21 A301 RMK A01 T02280205  RH  087%=      5-min Rain = 0.03
KSE2 142141Z 18010KT 23/21 A301 RMK A01 T02260205  RH  088%=      5-min Rain = 0.03
KSE2 142142Z 18012KT 22/20 A301 RMK A01 T02230202  RH  088%=      5-min Rain = 0.01
KSE2 142143Z 19010KT 22/20 A301 RMK A01 T02200199  RH  088%=      5-min Rain = 0.01
KSE2 142144Z 21008KT 22/20 A301 RMK A01 T02190196  RH  087%=      5-min Rain = 0
KSE2 142145Z 22007KT 22/19 A301 RMK A01 T02190193  RH  085%=      5-min Rain = 0
KSE2 142146Z 22010KT 22/19 A301 RMK A01 T02210193  RH  084%=      5-min Rain = 0
KSE2 142147Z 20009KT 22/19 A301 RMK A01 T02240190  RH  081%=      5-min Rain = 0
KSE2 142148Z 21008KT 23/19 A301 RMK A01 T02280190  RH  079%=      5-min Rain = 0.01
KSE2 142149Z 19007KT 23/19 A301 RMK A01 T02300191  RH  079%=      5-min Rain = 0.01
KSE2 142150Z 19008KT 23/20 A301 RMK A01 T02300195  RH  081%=      5-min Rain = 0.01
KSE2 142151Z 18009KT 23/20 A301 RMK A01 T02270196  RH  082%=      5-min Rain = 0.03
KSE2 142152Z 17009KT 22/20 A301 RMK A01 T02240197  RH  085%=      5-min Rain = 0.02
KSE2 142153Z 17007KT 22/19 A301 RMK A01 T02200194  RH  085%=      5-min Rain = 0.01
KSE2 142154Z 20005KT 22/19 A301 RMK A01 T02180194  RH  086%=      5-min Rain = 0
KSE2 142155Z 23003KT 22/19 A3009 RMK A01 T02160194  RH  087%=      5-min Rain = 0
KSE2 142156Z 21004KT 22/19 A3009 RMK A01 T02160191  RH  086%=      5-min Rain = 0
KSE2 142157Z 20003KT 22/19 A3009 RMK A01 T02160190  RH  085%=      5-min Rain = 0
KSE2 142158Z 22005KT 22/19 A3009 RMK A01 T02170191  RH  085%=      5-min Rain = 0.01
KSE2 142159Z 19005KT 22/19 A3009 RMK A01 T02170192  RH  086%=      5-min Rain = 0
KSE2 142200Z 16005KT 22/19 A3009 RMK A01 T02160193  RH  087%=      5-min Rain = 0
KSE2 142201Z 16005KT 22/20 A3009 RMK A01 T02150195  RH  088%=      5-min Rain = 0
KSE2 142202Z 16006KT 21/20 A3008 RMK A01 T02140196  RH  089%=      5-min Rain = 0
KSE2 142203Z 16006KT 21/20 A3008 RMK A01 T02140196  RH  090%=      5-min Rain = 0
KSE2 142204Z 17006KT 21/20 A3008 RMK A01 T02130196  RH  090%=      5-min Rain = 0
KSE2 142205Z 17006KT 21/20 A3008 RMK A01 T02120197  RH  091%=      5-min Rain = 0
KSE2 142206Z 17007KT 21/20 A3007 RMK A01 T02120198  RH  091%=      5-min Rain = 0
KSE2 142207Z 17007KT 21/20 A3007 RMK A01 T02120198  RH  092%=      5-min Rain = 0
KSE2 142208Z 17007KT 21/20 A3007 RMK A01 T02120197  RH  091%=      5-min Rain = 0
KSE2 142209Z 17008KT 21/20 A3007 RMK A01 T02110196  RH  091%=      5-min Rain = 0
KSE2 142210Z 18007KT 21/19 A3007 RMK A01 T02110194  RH  090%=      5-min Rain = 0
KSE2 142211Z 18006KT 21/19 A3007 RMK A01 T02120194  RH  090%=      5-min Rain = 0
KSE2 142212Z 17005KT 21/20 A3007 RMK A01 T02130195  RH  089%=      5-min Rain = 0
KSE2 142213Z 16005KT 21/20 A3006 RMK A01 T02140196  RH  089%=      5-min Rain = 0
KSE2 142214Z 16006KT 22/20 A3006 RMK A01 T02150196  RH  089%=      5-min Rain = 0
KSE2 142215Z 15006KT 22/20 A3006 RMK A01 T02150196  RH  089%=      5-min Rain = 0
KSE2 142216Z 15007KT 22/20 A3006 RMK A01 T02170198  RH  089%=      5-min Rain = 0
KSE2 142217Z 16007KT 22/20 A3006 RMK A01 T02170198  RH  089%=      5-min Rain = 0
KSE2 142218Z 16007KT 22/20 A3005 RMK A01 T02170198  RH  089%=      5-min Rain = 0
KSE2 142219Z 16007KT 22/20 A3005 RMK A01 T02180198  RH  088%=      5-min Rain = 0
KSE2 142220Z 17007KT 22/20 A3005 RMK A01 T02180199  RH  089%=      5-min Rain = 0
KSE2 142221Z 17006KT 22/20 A3005 RMK A01 T02190198  RH  088%=      5-min Rain = 0
KSE2 142222Z 18006KT 22/20 A3005 RMK A01 T02200199  RH  088%=      5-min Rain = 0.01
KSE2 142223Z 17006KT 22/20 A3005 RMK A01 T02200200  RH  088%=      5-min Rain = 0
KSE2 142224Z 16006KT 22/20 A3005 RMK A01 T02220203  RH  089%=      5-min Rain = 0
KSE2 142225Z 15008KT 22/20 A3005 RMK A01 T02220203  RH  089%=      5-min Rain = 0
KSE2 142226Z 15008KT 22/20 A3005 RMK A01 T02220204  RH  089%=      5-min Rain = 0
KSE2 142227Z 15008KT 22/20 A3005 RMK A01 T02220204  RH  089%=      5-min Rain = 0
KSE2 142228Z 15008KT 22/21 A3005 RMK A01 T02220205  RH  090%=      5-min Rain = 0
KSE2 142229Z 15007KT 22/21 A3005 RMK A01 T02220205  RH  090%=      5-min Rain = 0
KSE2 142230Z 15007KT 22/21 A3005 RMK A01 T02220207  RH  091%=      5-min Rain = 0
KSE2 142231Z 16007KT 22/21 A3005 RMK A01 T02220207  RH  091%=      5-min Rain = 0
KSE2 142232Z 16007KT 22/21 A3005 RMK A01 T02230207  RH  091%=      5-min Rain = 0
KSE2 142233Z 15007KT 22/21 A3005 RMK A01 T02230208  RH  091%=      5-min Rain = 0
KSE2 142234Z 15007KT 22/21 A3005 RMK A01 T02240207  RH  090%=      5-min Rain = 0
KSE2 142235Z 15006KT 23/21 A3005 RMK A01 T02250209  RH  090%=      5-min Rain = 0
KSE2 142236Z 14007KT 23/21 A3005 RMK A01 T02260209  RH  090%=      5-min Rain = 0
KSE2 142237Z 14008KT 23/21 A3005 RMK A01 T02270209  RH  090%=      5-min Rain = 0
KSE2 142238Z 14007KT 23/21 A3005 RMK A01 T02270210  RH  090%=      5-min Rain = 0
KSE2 142239Z 13007KT 23/21 A3006 RMK A01 T02270210  RH  090%=      5-min Rain = 0
KSE2 142240Z 14007KT 23/21 A3006 RMK A01 T02280211  RH  090%=      5-min Rain = 0
KSE2 142241Z 14008KT 23/21 A3006 RMK A01 T02280210  RH  090%=      5-min Rain = 0
KSE2 142242Z 14009KT 23/21 A3006 RMK A01 T02280209  RH  089%=      5-min Rain = 0
KSE2 142243Z 14007KT 23/21 A3006 RMK A01 T02280210  RH  089%=      5-min Rain = 0
KSE2 142244Z 15007KT 23/21 A3006 RMK A01 T02290211  RH  089%=      5-min Rain = 0
KSE2 142245Z 15007KT 23/21 A3006 RMK A01 T02290210  RH  089%=      5-min Rain = 0
KSE2 142246Z 14006KT 23/21 A3006 RMK A01 T02290210  RH  089%=      5-min Rain = 0
KSE2 142247Z 14007KT 23/21 A3006 RMK A01 T02290209  RH  089%=      5-min Rain = 0
KSE2 142248Z 14006KT 23/21 A3006 RMK A01 T02300210  RH  089%=      5-min Rain = 0
KSE2 142249Z 15005KT 23/21 A3006 RMK A01 T02300211  RH  089%=      5-min Rain = 0
KSE2 142250Z 15004KT 23/21 A3006 RMK A01 T02300212  RH  090%=      5-min Rain = 0
KSE2 142251Z 15004KT 23/21 A3006 RMK A01 T02300212  RH  090%=      5-min Rain = 0
KSE2 142252Z 14005KT 23/21 A3006 RMK A01 T02290211  RH  090%=      5-min Rain = 0
KSE2 142253Z 14005KT 23/21 A3006 RMK A01 T02290211  RH  090%=      5-min Rain = 0
KSE2 142254Z 16005KT 23/21 A3006 RMK A01 T02290211  RH  090%=      5-min Rain = 0
KSE2 142255Z 15006KT 23/21 A3006 RMK A01 T02290210  RH  089%=      5-min Rain = 0
KSE2 142256Z 16004KT 23/21 A3006 RMK A01 T02290209  RH  089%=      5-min Rain = 0
KSE2 142257Z 17005KT 23/21 A3006 RMK A01 T02290210  RH  089%=      5-min Rain = 0
KSE2 142258Z 17005KT 23/21 A3006 RMK A01 T02290211  RH  090%=      5-min Rain = 0
KSE2 142259Z 18005KT 23/21 A3006 RMK A01 T02290211  RH  089%=      5-min Rain = 0
KSE2 142300Z 18005KT 23/21 A3006 RMK A01 T02290213  RH  091%=      5-min Rain = 0
KSE2 142301Z 19006KT 23/21 A3006 RMK A01 T02290213  RH  090%=      5-min Rain = 0
KSE2 142302Z 18005KT 23/21 A3006 RMK A01 T02300214  RH  091%=      5-min Rain = 0
KSE2 142303Z 18005KT 23/21 A3006 RMK A01 T02290213  RH  091%=      5-min Rain = 0
KSE2 142304Z 18006KT 23/21 A3006 RMK A01 T02290212  RH  090%=      5-min Rain = 0
KSE2 142305Z 18005KT 23/21 A3006 RMK A01 T02280212  RH  091%=      5-min Rain = 0
KSE2 142306Z 17006KT 23/21 A3006 RMK A01 T02290213  RH  091%=      5-min Rain = 0
KSE2 142307Z 17006KT 23/21 A3006 RMK A01 T02290212  RH  090%=      5-min Rain = 0
KSE2 142308Z 18007KT 23/21 A3006 RMK A01 T02280212  RH  090%=      5-min Rain = 0
KSE2 142309Z 18007KT 23/21 A3006 RMK A01 T02280212  RH  091%=      5-min Rain = 0
KSE2 142310Z 18006KT 23/21 A3005 RMK A01 T02280213  RH  091%=      5-min Rain = 0
KSE2 142311Z 18006KT 23/21 A3005 RMK A01 T02290214  RH  091%=      5-min Rain = 0
KSE2 142312Z 18007KT 23/21 A3005 RMK A01 T02290214  RH  091%=      5-min Rain = 0
KSE2 142313Z 18006KT 23/21 A3005 RMK A01 T02290214  RH  091%=      5-min Rain = 0
KSE2 142314Z 18006KT 23/21 A3005 RMK A01 T02290214  RH  091%=      5-min Rain = 0
KSE2 142315Z 19007KT 23/21 A3005 RMK A01 T02290213  RH  091%=      5-min Rain = 0
KSE2 142316Z 19006KT 23/21 A3005 RMK A01 T02290213  RH  091%=      5-min Rain = 0
KSE2 142317Z 20005KT 23/21 A3005 RMK A01 T02290213  RH  091%=      5-min Rain = 0
KSE2 142318Z 19006KT 23/21 A3005 RMK A01 T02290214  RH  091%=      5-min Rain = 0
KSE2 142319Z 19005KT 23/21 A3005 RMK A01 T02290213  RH  091%=      5-min Rain = 0
KSE2 142320Z 19004KT 23/21 A3005 RMK A01 T02290214  RH  091%=      5-min Rain = 0
KSE2 142321Z 17005KT 23/21 A3005 RMK A01 T02290214  RH  091%=      5-min Rain = 0
KSE2 142322Z 18005KT 23/21 A3005 RMK A01 T02290213  RH  091%=      5-min Rain = 0
KSE2 142323Z 18005KT 23/21 A3005 RMK A01 T02290213  RH  091%=      5-min Rain = 0
KSE2 142324Z 18005KT 23/21 A3005 RMK A01 T02290214  RH  091%=      5-min Rain = 0
KSE2 142325Z 18005KT 23/21 A3005 RMK A01 T02290213  RH  091%=      5-min Rain = 0
KSE2 142326Z 17005KT 23/21 A3005 RMK A01 T02290212  RH  090%=      5-min Rain = 0
KSE2 142327Z 17003KT 23/21 A3005 RMK A01 T02290212  RH  090%=      5-min Rain = 0
KSE2 142328Z 16004KT 23/21 A3005 RMK A01 T02290213  RH  090%=      5-min Rain = 0
KSE2 142329Z 17003KT 23/21 A3005 RMK A01 T02290212  RH  090%=      5-min Rain = 0
KSE2 142330Z 17004KT 23/21 A3005 RMK A01 T02290212  RH  091%=      5-min Rain = 0
KSE2 142331Z 16004KT 23/21 A3005 RMK A01 T02290213  RH  091%=      5-min Rain = 0
KSE2 142332Z 17004KT 23/21 A3005 RMK A01 T02290212  RH  090%=      5-min Rain = 0
KSE2 142333Z 17004KT 23/21 A3005 RMK A01 T02280212  RH  090%=      5-min Rain = 0
KSE2 142334Z 17005KT 23/21 A3005 RMK A01 T02280212  RH  091%=      5-min Rain = 0
KSE2 142335Z 17005KT 23/21 A3004 RMK A01 T02280213  RH  091%=      5-min Rain = 0.01
KSE2 142336Z 18006KT 23/21 A3004 RMK A01 T02280212  RH  091%=      5-min Rain = 0
KSE2 142337Z 18006KT 23/21 A3004 RMK A01 T02290214  RH  092%=      5-min Rain = 0
KSE2 142338Z 18006KT 23/22 A3004 RMK A01 T02290216  RH  092%=      5-min Rain = 0
KSE2 142339Z 18006KT 23/22 A3004 RMK A01 T02290216  RH  092%=      5-min Rain = 0
KSE2 142340Z 18007KT 23/22 A3004 RMK A01 T02290215  RH  092%=      5-min Rain = 0
KSE2 142341Z 18007KT 23/22 A3004 RMK A01 T02280215  RH  092%=      5-min Rain = 0
KSE2 142342Z 18006KT 23/22 A3004 RMK A01 T02280215  RH  092%=      5-min Rain = 0
KSE2 142343Z 18006KT 23/22 A3004 RMK A01 T02280215  RH  092%=      5-min Rain = 0
KSE2 142344Z 19004KT 23/22 A3004 RMK A01 T02280215  RH  092%=      5-min Rain = 0
KSE2 142345Z 19005KT 23/22 A3004 RMK A01 T02280215  RH  092%=      5-min Rain = 0
KSE2 142346Z 19005KT 23/22 A3004 RMK A01 T02280215  RH  092%=      5-min Rain = 0
KSE2 142347Z 19005KT 23/21 A3004 RMK A01 T02280213  RH  092%=      5-min Rain = 0
KSE2 142348Z 19004KT 23/21 A3004 RMK A01 T02280213  RH  092%=      5-min Rain = 0
KSE2 142349Z 19004KT 23/21 A3004 RMK A01 T02280214  RH  092%=      5-min Rain = 0
KSE2 142350Z 18004KT 23/21 A3004 RMK A01 T02290213  RH  091%=      5-min Rain = 0
KSE2 142351Z 17004KT 23/21 A3004 RMK A01 T02290213  RH  091%=      5-min Rain = 0
KSE2 142352Z 16004KT 23/21 A3004 RMK A01 T02280212  RH  090%=      5-min Rain = 0
KSE2 142353Z 15004KT 23/21 A3004 RMK A01 T02290212  RH  090%=      5-min Rain = 0
KSE2 142354Z 15004KT 23/21 A3004 RMK A01 T02290213  RH  090%=      5-min Rain = 0
KSE2 142355Z 15005KT 23/21 A3004 RMK A01 T02290213  RH  090%=      5-min Rain = 0
KSE2 142356Z 16005KT 23/21 A3004 RMK A01 T02300212  RH  090%=      5-min Rain = 0
KSE2 142357Z 16005KT 23/21 A3004 RMK A01 T02300213  RH  090%=      5-min Rain = 0
KSE2 142358Z 15006KT 23/21 A3004 RMK A01 T02300214  RH  090%=      5-min Rain = 0
KSE2 142359Z 14005KT 23/21 A3004 RMK A01 T02300212  RH  090%=      5-min Rain = 0
KSE2 150000Z 15005KT 23/21 A3004 RMK A01 T02300212  RH  090%=      5-min Rain = 0
KSE2 150001Z 15003KT 23/21 A3004 RMK A01 T02300212  RH  090%=      5-min Rain = 0
KSE2 150002Z 14003KT 23/22 A3004 RMK A01 T02310215  RH  091%=      5-min Rain = 0
KSE2 150003Z 14003KT 23/22 A3004 RMK A01 T02310215  RH  091%=      5-min Rain = 0.01
KSE2 150004Z 15004KT 23/22 A3004 RMK A01 T02310215  RH  091%=      5-min Rain = 0
KSE2 150005Z 15004KT 23/21 A3004 RMK A01 T02310212  RH  089%=      5-min Rain = 0
KSE2 150006Z 15005KT 23/21 A3004 RMK A01 T02300211  RH  089%=      5-min Rain = 0
KSE2 150007Z 15004KT 23/21 A3004 RMK A01 T02300211  RH  089%=      5-min Rain = 0
KSE2 150008Z 14004KT 23/21 A3004 RMK A01 T02300211  RH  089%=      5-min Rain = 0
KSE2 150009Z 14003KT 23/21 A3004 RMK A01 T02300211  RH  089%=      5-min Rain = 0
KSE2 150010Z 14004KT 23/21 A3004 RMK A01 T02310214  RH  090%=      5-min Rain = 0
KSE2 150011Z 15004KT 23/21 A3004 RMK A01 T02320214  RH  089%=      5-min Rain = 0
KSE2 150012Z 16004KT 23/21 A3004 RMK A01 T02320213  RH  089%=      5-min Rain = 0
KSE2 150013Z 15003KT 23/21 A3004 RMK A01 T02320214  RH  090%=      5-min Rain = 0
KSE2 150014Z 15002KT 23/21 A3004 RMK A01 T02310213  RH  089%=      5-min Rain = 0
KSE2 150015Z 16002KT 23/21 A3004 RMK A01 T02310213  RH  090%=      5-min Rain = 0
KSE2 150016Z 15002KT 23/21 A3004 RMK A01 T02310213  RH  090%=      5-min Rain = 0
KSE2 150017Z 17001KT 23/21 A3004 RMK A01 T02310211  RH  088%=      5-min Rain = 0
KSE2 150018Z 16001KT 23/21 A3004 RMK A01 T02310212  RH  089%=      5-min Rain = 0
KSE2 150019Z 17001KT 23/21 A3004 RMK A01 T02310211  RH  088%=      5-min Rain = 0
KSE2 150020Z 19002KT 23/21 A3004 RMK A01 T02320210  RH  088%=      5-min Rain = 0
KSE2 150021Z 18001KT 23/21 A3004 RMK A01 T02320210  RH  088%=      5-min Rain = 0
KSE2 150022Z 17002KT 23/21 A3004 RMK A01 T02330212  RH  088%=      5-min Rain = 0
KSE2 150023Z 15002KT 23/21 A3004 RMK A01 T02330207  RH  085%=      5-min Rain = 0
KSE2 150024Z 15002KT 23/21 A3004 RMK A01 T02330207  RH  085%=      5-min Rain = 0
KSE2 150025Z 14002KT 23/21 A3004 RMK A01 T02340205  RH  084%=      5-min Rain = 0
KSE2 150026Z 13001KT 24/21 A3004 RMK A01 T02350205  RH  083%=      5-min Rain = 0
KSE2 150027Z 15001KT 24/21 A3004 RMK A01 T02380212  RH  085%=      5-min Rain = 0
KSE2 150028Z 16001KT 24/21 A3004 RMK A01 T02380207  RH  082%=      5-min Rain = 0
KSE2 150029Z 15000KT 24/21 A3004 RMK A01 T02380206  RH  082%=      5-min Rain = 0
KSE2 150030Z 17001KT 24/21 A3004 RMK A01 T02380207  RH  083%=      5-min Rain = 0
KSE2 150031Z 18001KT 24/21 A3004 RMK A01 T02390210  RH  084%=      5-min Rain = 0
KSE2 150032Z 18001KT 24/22 A3004 RMK A01 T02400215  RH  086%=      5-min Rain = 0
KSE2 150033Z 16001KT 24/22 A3004 RMK A01 T02410219  RH  088%=      5-min Rain = 0
KSE2 150034Z 00000KT 24/22 A3004 RMK A01 T02410221  RH  089%=      5-min Rain = 0
KSE2 150035Z 08002KT 24/22 A3004 RMK A01 T02410221  RH  089%=      5-min Rain = 0
KSE2 150036Z 07003KT 24/22 A3004 RMK A01 T02390220  RH  089%=      5-min Rain = 0
KSE2 150037Z 08003KT 24/22 A3004 RMK A01 T02380220  RH  090%=      5-min Rain = 0
KSE2 150038Z 09003KT 24/22 A3004 RMK A01 T02360217  RH  089%=      5-min Rain = 0
KSE2 150039Z 10001KT 23/22 A3004 RMK A01 T02340216  RH  089%=      5-min Rain = 0
KSE2 150040Z 10001KT 23/22 A3004 RMK A01 T02340216  RH  090%=      5-min Rain = 0
KSE2 150041Z 10001KT 23/22 A3004 RMK A01 T02340215  RH  089%=      5-min Rain = 0
KSE2 150042Z 08002KT 23/22 A3004 RMK A01 T02340215  RH  089%=      5-min Rain = 0
KSE2 150043Z 08002KT 23/22 A3004 RMK A01 T02340215  RH  089%=      5-min Rain = 0
KSE2 150044Z 09002KT 23/22 A3004 RMK A01 T02340215  RH  089%=      5-min Rain = 0
KSE2 150045Z 11002KT 23/22 A3004 RMK A01 T02330215  RH  089%=      5-min Rain = 0
KSE2 150046Z 13002KT 23/21 A3004 RMK A01 T02330214  RH  089%=      5-min Rain = 0
KSE2 150047Z 14002KT 23/22 A3004 RMK A01 T02330216  RH  090%=      5-min Rain = 0
KSE2 150048Z 14003KT 23/22 A3004 RMK A01 T02340218  RH  091%=      5-min Rain = 0
KSE2 150049Z 16003KT 23/22 A3004 RMK A01 T02340217  RH  090%=      5-min Rain = 0
KSE2 150050Z 18003KT 23/21 A3005 RMK A01 T02330214  RH  089%=      5-min Rain = 0
KSE2 150051Z 20003KT 23/22 A3005 RMK A01 T02330218  RH  091%=      5-min Rain = 0
KSE2 150052Z 23005KT 23/22 A3005 RMK A01 T02340218  RH  091%=      5-min Rain = 0
KSE2 150053Z 24006KT 23/22 A3005 RMK A01 T02340219  RH  091%=      5-min Rain = 0
KSE2 150054Z 25007KT 23/22 A3005 RMK A01 T02340218  RH  091%=      5-min Rain = 0
KSE2 150055Z 25006KT 23/22 A3005 RMK A01 T02330218  RH  091%=      5-min Rain = 0
KSE2 150056Z 26004KT 23/22 A3005 RMK A01 T02330219  RH  092%=      5-min Rain = 0
KSE2 150057Z 26002KT 23/22 A3005 RMK A01 T02330219  RH  092%=      5-min Rain = 0
KSE2 150058Z 26002KT 23/22 A3005 RMK A01 T02330219  RH  092%=      5-min Rain = 0
KSE2 150059Z 25002KT 23/22 A3005 RMK A01 T02320216  RH  091%=      5-min Rain = 0
KSE2 150100Z 23002KT 23/22 A3005 RMK A01 T02320217  RH  091%=      5-min Rain = 0
KSE2 150101Z 22005KT 23/22 A3005 RMK A01 T02330218  RH  091%=      5-min Rain = 0
KSE2 150102Z 22006KT 23/22 A3005 RMK A01 T02330218  RH  091%=      5-min Rain = 0
KSE2 150103Z 22005KT 23/22 A3005 RMK A01 T02330216  RH  090%=      5-min Rain = 0
KSE2 150104Z 22004KT 23/22 A3005 RMK A01 T02330215  RH  090%=      5-min Rain = 0
KSE2 150105Z 22004KT 23/22 A3005 RMK A01 T02330215  RH  089%=      5-min Rain = 0
KSE2 150106Z 21003KT 23/21 A3005 RMK A01 T02330213  RH  088%=      5-min Rain = 0
KSE2 150107Z 20003KT 23/21 A3005 RMK A01 T02330214  RH  089%=      5-min Rain = 0
KSE2 150108Z 18003KT 23/21 A3005 RMK A01 T02340214  RH  088%=      5-min Rain = 0
KSE2 150109Z 19004KT 23/22 A3005 RMK A01 T02340216  RH  089%=      5-min Rain = 0
KSE2 150110Z 19003KT 23/22 A3005 RMK A01 T02340215  RH  089%=      5-min Rain = 0
KSE2 150111Z 18003KT 23/22 A3005 RMK A01 T02340215  RH  089%=      5-min Rain = 0
KSE2 150112Z 17003KT 23/22 A3005 RMK A01 T02340215  RH  089%=      5-min Rain = 0
KSE2 150113Z 18003KT 23/22 A3005 RMK A01 T02340215  RH  089%=      5-min Rain = 0
KSE2 150114Z 20004KT 23/22 A3005 RMK A01 T02340216  RH  089%=      5-min Rain = 0
KSE2 150115Z 20004KT 24/22 A3005 RMK A01 T02350216  RH  089%=      5-min Rain = 0
KSE2 150116Z 20003KT 23/22 A3005 RMK A01 T02340216  RH  089%=      5-min Rain = 0
KSE2 150117Z 20003KT 24/21 A3005 RMK A01 T02350214  RH  088%=      5-min Rain = 0
KSE2 150118Z 22003KT 24/21 A3005 RMK A01 T02350213  RH  088%=      5-min Rain = 0
KSE2 150119Z 22003KT 24/22 A3005 RMK A01 T02350215  RH  088%=      5-min Rain = 0
KSE2 150120Z 22003KT 24/21 A3005 RMK A01 T02350214  RH  088%=      5-min Rain = 0
KSE2 150121Z 21002KT 24/22 A3005 RMK A01 T02360215  RH  088%=      5-min Rain = 0
KSE2 150122Z 21002KT 24/21 A3005 RMK A01 T02350214  RH  088%=      5-min Rain = 0
KSE2 150123Z 21001KT 24/22 A3005 RMK A01 T02360215  RH  088%=      5-min Rain = 0
KSE2 150124Z 21002KT 24/22 A3005 RMK A01 T02360216  RH  088%=      5-min Rain = 0
KSE2 150125Z 20002KT 24/22 A3005 RMK A01 T02360215  RH  088%=      5-min Rain = 0
KSE2 150126Z 18002KT 24/21 A3005 RMK A01 T02360214  RH  088%=      5-min Rain = 0
KSE2 150127Z 17002KT 24/21 A3005 RMK A01 T02350208  RH  085%=      5-min Rain = 0
KSE2 150128Z 17002KT 24/21 A3005 RMK A01 T02350209  RH  086%=      5-min Rain = 0
KSE2 150129Z 16002KT 24/22 A3005 RMK A01 T02370217  RH  089%=      5-min Rain = 0
KSE2 150130Z 16002KT 24/22 A3005 RMK A01 T02380220  RH  089%=      5-min Rain = 0
KSE2 150131Z 16002KT 24/22 A3005 RMK A01 T02380219  RH  089%=      5-min Rain = 0
KSE2 150132Z 16002KT 24/22 A3005 RMK A01 T02380218  RH  089%=      5-min Rain = 0
KSE2 150133Z 16002KT 24/21 A3005 RMK A01 T02370212  RH  086%=      5-min Rain = 0
KSE2 150134Z 16002KT 24/21 A3005 RMK A01 T02360211  RH  085%=      5-min Rain = 0
KSE2 150135Z 16002KT 24/21 A3005 RMK A01 T02370211  RH  085%=      5-min Rain = 0
KSE2 150136Z 16002KT 24/21 A3005 RMK A01 T02370210  RH  085%=      5-min Rain = 0
KSE2 150137Z 17003KT 24/21 A3005 RMK A01 T02370209  RH  084%=      5-min Rain = 0
KSE2 150138Z 18003KT 24/22 A3005 RMK A01 T02390218  RH  088%=      5-min Rain = 0
KSE2 150139Z 20003KT 24/22 A3005 RMK A01 T02400219  RH  088%=      5-min Rain = 0
KSE2 150140Z 21003KT 24/22 A3005 RMK A01 T02390219  RH  088%=      5-min Rain = 0
KSE2 150141Z 22003KT 24/21 A3005 RMK A01 T02370214  RH  086%=      5-min Rain = 0
KSE2 150142Z 23005KT 24/21 A3005 RMK A01 T02370214  RH  087%=      5-min Rain = 0
KSE2 150143Z 24004KT 24/22 A3005 RMK A01 T02370218  RH  089%=      5-min Rain = 0
KSE2 150144Z 22003KT 24/22 A3005 RMK A01 T02370216  RH  088%=      5-min Rain = 0
KSE2 150145Z 23002KT 24/22 A3005 RMK A01 T02360215  RH  088%=      5-min Rain = 0
KSE2 150146Z 23003KT 24/22 A3005 RMK A01 T02370216  RH  088%=      5-min Rain = 0
KSE2 150147Z 22004KT 24/22 A3005 RMK A01 T02360218  RH  090%=      5-min Rain = 0
KSE2 150148Z 21003KT 24/22 A3005 RMK A01 T02370221  RH  091%=      5-min Rain = 0
KSE2 150149Z 21002KT 24/22 A3005 RMK A01 T02360221  RH  091%=      5-min Rain = 0
KSE2 150150Z 20002KT 24/22 A3005 RMK A01 T02360221  RH  091%=      5-min Rain = 0
KSE2 150151Z 20003KT 24/22 A3005 RMK A01 T02360222  RH  092%=      5-min Rain = 0
KSE2 150152Z 21004KT 24/22 A3005 RMK A01 T02360223  RH  093%=      5-min Rain = 0
KSE2 150153Z 20004KT 24/22 A3005 RMK A01 T02360224  RH  093%=      5-min Rain = 0
KSE2 150154Z 20003KT 24/22 A3005 RMK A01 T02350223  RH  093%=      5-min Rain = 0
KSE2 150155Z 20004KT 24/22 A3005 RMK A01 T02350223  RH  093%=      5-min Rain = 0
KSE2 150156Z 20004KT 23/22 A3005 RMK A01 T02340222  RH  093%=      5-min Rain = 0
KSE2 150157Z 21004KT 23/22 A3005 RMK A01 T02340222  RH  093%=      5-min Rain = 0
KSE2 150158Z 20004KT 23/22 A3005 RMK A01 T02340222  RH  093%=      5-min Rain = 0
KSE2 150159Z 20005KT 23/22 A3005 RMK A01 T02340221  RH  092%=      5-min Rain = 0
KSE2 150200Z 20004KT 23/22 A3005 RMK A01 T02340219  RH  091%=      5-min Rain = 0
KSE2 150201Z 21004KT 23/22 A3005 RMK A01 T02340219  RH  091%=      5-min Rain = 0
KSE2 150202Z 22004KT 23/22 A3005 RMK A01 T02340219  RH  091%=      5-min Rain = 0
KSE2 150203Z 22004KT 23/22 A3005 RMK A01 T02340219  RH  091%=      5-min Rain = 0
KSE2 150204Z 23004KT 23/22 A3005 RMK A01 T02340219  RH  092%=      5-min Rain = 0
KSE2 150205Z 23004KT 23/22 A3005 RMK A01 T02340220  RH  092%=      5-min Rain = 0
KSE2 150206Z 24004KT 23/22 A3005 RMK A01 T02340220  RH  092%=      5-min Rain = 0
KSE2 150207Z 24004KT 24/22 A3005 RMK A01 T02350219  RH  091%=      5-min Rain = 0
KSE2 150208Z 24005KT 23/22 A3005 RMK A01 T02340217  RH  090%=      5-min Rain = 0
KSE2 150209Z 24004KT 23/21 A3005 RMK A01 T02340214  RH  089%=      5-min Rain = 0
KSE2 150210Z 24004KT 24/22 A3005 RMK A01 T02350215  RH  089%=      5-min Rain = 0
KSE2 150211Z 24004KT 24/22 A3005 RMK A01 T02360215  RH  088%=      5-min Rain = 0
KSE2 150212Z 23003KT 24/22 A3005 RMK A01 T02360216  RH  088%=      5-min Rain = 0
KSE2 150213Z 24004KT 24/21 A3005 RMK A01 T02360214  RH  088%=      5-min Rain = 0
KSE2 150214Z 24004KT 24/22 A3005 RMK A01 T02370215  RH  087%=      5-min Rain = 0
KSE2 150215Z 24003KT 24/21 A3005 RMK A01 T02370214  RH  087%=      5-min Rain = 0
KSE2 150216Z 23004KT 24/21 A3005 RMK A01 T02370212  RH  086%=      5-min Rain = 0
KSE2 150217Z 23004KT 24/21 A3005 RMK A01 T02380212  RH  086%=      5-min Rain = 0
KSE2 150218Z 24004KT 24/21 A3005 RMK A01 T02380211  RH  085%=      5-min Rain = 0
KSE2 150219Z 24004KT 24/21 A3005 RMK A01 T02380210  RH  084%=      5-min Rain = 0
KSE2 150220Z 24004KT 24/21 A3005 RMK A01 T02390210  RH  084%=      5-min Rain = 0
KSE2 150221Z 24003KT 24/21 A3005 RMK A01 T02390209  RH  083%=      5-min Rain = 0
KSE2 150222Z 25004KT 24/21 A3006 RMK A01 T02400207  RH  082%=      5-min Rain = 0
KSE2 150223Z 25003KT 24/21 A3006 RMK A01 T02400208  RH  082%=      5-min Rain = 0
KSE2 150224Z 24002KT 24/21 A3006 RMK A01 T02410210  RH  083%=      5-min Rain = 0
KSE2 150225Z 24002KT 24/21 A3006 RMK A01 T02410212  RH  084%=      5-min Rain = 0
KSE2 150226Z 24002KT 24/21 A3006 RMK A01 T02410213  RH  084%=      5-min Rain = 0
KSE2 150227Z 23001KT 24/21 A3006 RMK A01 T02410213  RH  084%=      5-min Rain = 0
KSE2 150228Z 24001KT 24/22 A3006 RMK A01 T02410217  RH  086%=      5-min Rain = 0
KSE2 150229Z 25001KT 24/21 A3006 RMK A01 T02400214  RH  085%=      5-min Rain = 0
KSE2 150230Z 26001KT 24/21 A3006 RMK A01 T02390214  RH  086%=      5-min Rain = 0
KSE2 150231Z 26001KT 24/21 A3006 RMK A01 T02390214  RH  086%=      5-min Rain = 0
KSE2 150232Z 24001KT 24/22 A3006 RMK A01 T02390217  RH  088%=      5-min Rain = 0
KSE2 150233Z 24002KT 24/22 A3006 RMK A01 T02390221  RH  089%=      5-min Rain = 0
KSE2 150234Z 24002KT 24/22 A3006 RMK A01 T02390222  RH  090%=      5-min Rain = 0
KSE2 150235Z 24002KT 24/22 A3006 RMK A01 T02390222  RH  090%=      5-min Rain = 0
KSE2 150236Z 22002KT 24/22 A3007 RMK A01 T02390220  RH  089%=      5-min Rain = 0
KSE2 150237Z 22002KT 24/22 A3007 RMK A01 T02380219  RH  089%=      5-min Rain = 0
KSE2 150238Z 21002KT 24/22 A3007 RMK A01 T02380222  RH  091%=      5-min Rain = 0
KSE2 150239Z 21001KT 24/22 A3007 RMK A01 T02390222  RH  090%=      5-min Rain = 0
KSE2 150240Z 21001KT 24/22 A3007 RMK A01 T02380219  RH  089%=      5-min Rain = 0
KSE2 150241Z 00000KT 24/22 A3007 RMK A01 T02370219  RH  090%=      5-min Rain = 0
KSE2 150242Z 00000KT 24/22 A3007 RMK A01 T02360217  RH  089%=      5-min Rain = 0
KSE2 150243Z 00000KT 24/22 A3007 RMK A01 T02360217  RH  089%=      5-min Rain = 0
KSE2 150244Z 00000KT 24/22 A3007 RMK A01 T02360216  RH  089%=      5-min Rain = 0
KSE2 150245Z 00000KT 24/22 A3007 RMK A01 T02350217  RH  089%=      5-min Rain = 0
KSE2 150246Z 21000KT 24/22 A3007 RMK A01 T02350219  RH  091%=      5-min Rain = 0
KSE2 150247Z 21001KT 24/22 A3007 RMK A01 T02350219  RH  091%=      5-min Rain = 0
KSE2 150248Z 21001KT 24/22 A3007 RMK A01 T02350219  RH  091%=      5-min Rain = 0
KSE2 150249Z 21001KT 23/22 A3007 RMK A01 T02340220  RH  092%=      5-min Rain = 0
KSE2 150250Z 21001KT 24/22 A3007 RMK A01 T02350220  RH  091%=      5-min Rain = 0
KSE2 150251Z 21001KT 24/22 A3007 RMK A01 T02350221  RH  092%=      5-min Rain = 0
KSE2 150252Z 21001KT 24/22 A3007 RMK A01 T02350221  RH  092%=      5-min Rain = 0
KSE2 150253Z 22002KT 24/22 A3007 RMK A01 T02350222  RH  092%=      5-min Rain = 0
KSE2 150254Z 22002KT 24/22 A3007 RMK A01 T02350221  RH  092%=      5-min Rain = 0
KSE2 150255Z 23001KT 23/22 A3007 RMK A01 T02340219  RH  092%=      5-min Rain = 0
KSE2 150256Z 23001KT 23/22 A3007 RMK A01 T02330218  RH  091%=      5-min Rain = 0
KSE2 150257Z 23002KT 23/22 A3007 RMK A01 T02330218  RH  092%=      5-min Rain = 0
KSE2 150258Z 23002KT 23/22 A3007 RMK A01 T02320217  RH  091%=      5-min Rain = 0
KSE2 150259Z 23003KT 23/22 A3007 RMK A01 T02320218  RH  092%=      5-min Rain = 0
KSE2 150300Z 22003KT 23/22 A3007 RMK A01 T02320218  RH  092%=      5-min Rain = 0
KSE2 150301Z 22001KT 23/22 A3008 RMK A01 T02320219  RH  092%=      5-min Rain = 0
KSE2 150302Z 20002KT 23/22 A3008 RMK A01 T02330220  RH  092%=      5-min Rain = 0
KSE2 150303Z 19002KT 23/22 A3008 RMK A01 T02330218  RH  091%=      5-min Rain = 0
KSE2 150304Z 18002KT 23/22 A3008 RMK A01 T02330216  RH  090%=      5-min Rain = 0
KSE2 150305Z 17002KT 23/22 A3008 RMK A01 T02330217  RH  091%=      5-min Rain = 0
KSE2 150306Z 16002KT 23/22 A3008 RMK A01 T02340216  RH  090%=      5-min Rain = 0
KSE2 150307Z 17002KT 23/22 A3008 RMK A01 T02340217  RH  090%=      5-min Rain = 0
KSE2 150308Z 18003KT 24/22 A3008 RMK A01 T02350218  RH  090%=      5-min Rain = 0
KSE2 150309Z 18003KT 24/22 A3008 RMK A01 T02350216  RH  089%=      5-min Rain = 0
KSE2 150310Z 20003KT 24/22 A3008 RMK A01 T02360218  RH  090%=      5-min Rain = 0
KSE2 150311Z 21003KT 24/22 A3008 RMK A01 T02360219  RH  091%=      5-min Rain = 0
KSE2 150312Z 20003KT 24/22 A3008 RMK A01 T02350220  RH  091%=      5-min Rain = 0
KSE2 150313Z 20003KT 24/22 A3008 RMK A01 T02360221  RH  091%=      5-min Rain = 0
KSE2 150314Z 20003KT 24/22 A3008 RMK A01 T02360221  RH  092%=      5-min Rain = 0
KSE2 150315Z 21003KT 24/22 A3008 RMK A01 T02350220  RH  091%=      5-min Rain = 0
KSE2 150316Z 21003KT 24/22 A3007 RMK A01 T02350220  RH  091%=      5-min Rain = 0
KSE2 150317Z 22003KT 24/22 A3007 RMK A01 T02350221  RH  092%=      5-min Rain = 0
KSE2 150318Z 22003KT 24/22 A3007 RMK A01 T02350221  RH  092%=      5-min Rain = 0
KSE2 150319Z 22003KT 24/22 A3007 RMK A01 T02350222  RH  093%=      5-min Rain = 0
KSE2 150320Z 22003KT 24/22 A3007 RMK A01 T02350222  RH  093%=      5-min Rain = 0
KSE2 150321Z 22003KT 24/22 A3007 RMK A01 T02350223  RH  093%=      5-min Rain = 0
KSE2 150322Z 22003KT 24/22 A3007 RMK A01 T02350221  RH  092%=      5-min Rain = 0
KSE2 150323Z 22004KT 23/22 A3007 RMK A01 T02340220  RH  092%=      5-min Rain = 0
KSE2 150324Z 22004KT 23/22 A3007 RMK A01 T02340219  RH  092%=      5-min Rain = 0
KSE2 150325Z 22004KT 23/22 A3007 RMK A01 T02340219  RH  091%=      5-min Rain = 0
KSE2 150326Z 22004KT 23/22 A3007 RMK A01 T02340218  RH  091%=      5-min Rain = 0
KSE2 150327Z 22004KT 23/22 A3007 RMK A01 T02340216  RH  090%=      5-min Rain = 0
KSE2 150328Z 21004KT 23/22 A3007 RMK A01 T02340216  RH  090%=      5-min Rain = 0
KSE2 150329Z 21003KT 24/22 A3007 RMK A01 T02350218  RH  090%=      5-min Rain = 0
KSE2 150330Z 20003KT 24/22 A3007 RMK A01 T02350218  RH  090%=      5-min Rain = 0
KSE2 150331Z 20004KT 24/22 A3007 RMK A01 T02350219  RH  091%=      5-min Rain = 0
KSE2 150332Z 21004KT 24/22 A3007 RMK A01 T02360220  RH  091%=      5-min Rain = 0
KSE2 150333Z 21005KT 24/22 A3008 RMK A01 T02350220  RH  091%=      5-min Rain = 0
KSE2 150334Z 21005KT 24/22 A3008 RMK A01 T02350219  RH  091%=      5-min Rain = 0
KSE2 150335Z 21005KT 24/22 A3008 RMK A01 T02350219  RH  091%=      5-min Rain = 0
KSE2 150336Z 22005KT 23/22 A3008 RMK A01 T02340219  RH  091%=      5-min Rain = 0
KSE2 150337Z 22005KT 23/22 A3008 RMK A01 T02340218  RH  091%=      5-min Rain = 0
KSE2 150338Z 22005KT 23/22 A3008 RMK A01 T02340219  RH  091%=      5-min Rain = 0
KSE2 150339Z 22005KT 23/22 A3008 RMK A01 T02340219  RH  091%=      5-min Rain = 0
KSE2 150340Z 22005KT 23/22 A3008 RMK A01 T02340218  RH  091%=      5-min Rain = 0
KSE2 150341Z 23005KT 23/22 A3008 RMK A01 T02330217  RH  090%=      5-min Rain = 0
KSE2 150342Z 23004KT 23/22 A3008 RMK A01 T02330217  RH  090%=      5-min Rain = 0
KSE2 150343Z 24004KT 23/22 A3008 RMK A01 T02340216  RH  090%=      5-min Rain = 0
KSE2 150344Z 24003KT 23/22 A3008 RMK A01 T02340216  RH  090%=      5-min Rain = 0
KSE2 150345Z 24003KT 23/22 A3008 RMK A01 T02340215  RH  089%=      5-min Rain = 0
KSE2 150346Z 25003KT 23/21 A3008 RMK A01 T02340214  RH  088%=      5-min Rain = 0
KSE2 150347Z 26002KT 23/21 A3008 RMK A01 T02340213  RH  088%=      5-min Rain = 0
KSE2 150348Z 26002KT 24/21 A3008 RMK A01 T02350212  RH  087%=      5-min Rain = 0
KSE2 150349Z 26002KT 24/21 A3009 RMK A01 T02350212  RH  087%=      5-min Rain = 0
KSE2 150350Z 26001KT 24/21 A3009 RMK A01 T02350210  RH  086%=      5-min Rain = 0
KSE2 150351Z 27002KT 24/21 A3009 RMK A01 T02350210  RH  086%=      5-min Rain = 0
KSE2 150352Z 27002KT 24/21 A3009 RMK A01 T02350210  RH  086%=      5-min Rain = 0
KSE2 150353Z 27002KT 24/21 A3009 RMK A01 T02350209  RH  085%=      5-min Rain = 0
KSE2 150354Z 27002KT 24/21 A3009 RMK A01 T02350210  RH  086%=      5-min Rain = 0
KSE2 150355Z 27002KT 24/21 A3009 RMK A01 T02350210  RH  086%=      5-min Rain = 0
KSE2 150356Z 27002KT 24/21 A3009 RMK A01 T02350211  RH  086%=      5-min Rain = 0
KSE2 150357Z 27002KT 24/21 A3009 RMK A01 T02360212  RH  087%=      5-min Rain = 0
KSE2 150358Z 27002KT 24/21 A3009 RMK A01 T02350214  RH  088%=      5-min Rain = 0
KSE2 150359Z 27002KT 24/21 A3009 RMK A01 T02360214  RH  088%=      5-min Rain = 0
KSE2 150400Z 26002KT 24/21 A3009 RMK A01 T02350213  RH  088%=      5-min Rain = 0
KSE2 150401Z 26002KT 23/21 A3009 RMK A01 T02340210  RH  086%=      5-min Rain = 0
KSE2 150402Z 26002KT 23/21 A301 RMK A01 T02340208  RH  085%=      5-min Rain = 0
KSE2 150403Z 26003KT 23/21 A301 RMK A01 T02340207  RH  084%=      5-min Rain = 0
KSE2 150404Z 26003KT 23/21 A301 RMK A01 T02340207  RH  085%=      5-min Rain = 0
KSE2 150405Z 27002KT 24/21 A301 RMK A01 T02350210  RH  086%=      5-min Rain = 0
KSE2 150406Z 27002KT 24/21 A301 RMK A01 T02350213  RH  087%=      5-min Rain = 0
KSE2 150407Z 27001KT 24/21 A301 RMK A01 T02360214  RH  088%=      5-min Rain = 0
KSE2 150408Z 00000KT 24/22 A301 RMK A01 T02350215  RH  088%=      5-min Rain = 0
KSE2 150409Z 00000KT 24/22 A301 RMK A01 T02350219  RH  091%=      5-min Rain = 0
KSE2 150410Z 32001KT 23/22 A301 RMK A01 T02340217  RH  090%=      5-min Rain = 0
KSE2 150411Z 33002KT 23/22 A301 RMK A01 T02330216  RH  090%=      5-min Rain = 0
KSE2 150412Z 34003KT 23/22 A301 RMK A01 T02320216  RH  090%=      5-min Rain = 0
KSE2 150413Z 03003KT 23/21 A301 RMK A01 T02310214  RH  090%=      5-min Rain = 0
KSE2 150414Z 06007KT 23/22 A301 RMK A01 T02300216  RH  092%=      5-min Rain = 0
KSE2 150415Z 06007KT 23/22 A3011 RMK A01 T02300219  RH  093%=      5-min Rain = 0
KSE2 150416Z 04006KT 23/22 A3011 RMK A01 T02300220  RH  094%=      5-min Rain = 0
KSE2 150417Z 04005KT 23/22 A3011 RMK A01 T02300220  RH  094%=      5-min Rain = 0
KSE2 150418Z 04005KT 23/22 A3011 RMK A01 T02300220  RH  094%=      5-min Rain = 0
KSE2 150419Z 04005KT 23/22 A3011 RMK A01 T02300219  RH  094%=      5-min Rain = 0
KSE2 150420Z 04006KT 23/22 A3011 RMK A01 T02300219  RH  094%=      5-min Rain = 0
KSE2 150421Z 04006KT 23/22 A3011 RMK A01 T02300220  RH  094%=      5-min Rain = 0
KSE2 150422Z 05007KT 23/22 A3011 RMK A01 T02290219  RH  094%=      5-min Rain = 0
KSE2 150423Z 04006KT 23/22 A3011 RMK A01 T02290220  RH  094%=      5-min Rain = 0
KSE2 150424Z 05007KT 23/22 A3011 RMK A01 T02290219  RH  094%=      5-min Rain = 0
KSE2 150425Z 05006KT 23/22 A3011 RMK A01 T02290219  RH  094%=      5-min Rain = 0
KSE2 150426Z 05006KT 23/22 A3011 RMK A01 T02280219  RH  095%=      5-min Rain = 0
KSE2 150427Z 04005KT 23/22 A3011 RMK A01 T02280219  RH  095%=      5-min Rain = 0
KSE2 150428Z 06004KT 23/22 A3011 RMK A01 T02280220  RH  095%=      5-min Rain = 0
KSE2 150429Z 05004KT 23/22 A3011 RMK A01 T02280219  RH  095%=      5-min Rain = 0
KSE2 150430Z 05005KT 23/22 A3011 RMK A01 T02280219  RH  095%=      5-min Rain = 0
KSE2 150431Z 05004KT 23/22 A3011 RMK A01 T02270219  RH  095%=      5-min Rain = 0
KSE2 150432Z 05004KT 23/22 A3011 RMK A01 T02270218  RH  095%=      5-min Rain = 0
KSE2 150433Z 05003KT 23/22 A3011 RMK A01 T02270218  RH  095%=      5-min Rain = 0
KSE2 150434Z 06004KT 23/22 A3011 RMK A01 T02270219  RH  095%=      5-min Rain = 0
KSE2 150435Z 06004KT 23/22 A3011 RMK A01 T02270219  RH  095%=      5-min Rain = 0
KSE2 150436Z 06003KT 23/22 A3011 RMK A01 T02270219  RH  095%=      5-min Rain = 0
KSE2 150437Z 07003KT 23/22 A3012 RMK A01 T02270219  RH  095%=      5-min Rain = 0
KSE2 150438Z 07003KT 23/22 A3012 RMK A01 T02270219  RH  095%=      5-min Rain = 0
KSE2 150439Z 06003KT 23/22 A3012 RMK A01 T02270219  RH  095%=      5-min Rain = 0
KSE2 150440Z 06003KT 23/22 A3012 RMK A01 T02270219  RH  096%=      5-min Rain = 0
KSE2 150441Z 06003KT 23/22 A3012 RMK A01 T02260219  RH  096%=      5-min Rain = 0
KSE2 150442Z 06004KT 23/22 A3012 RMK A01 T02260219  RH  096%=      5-min Rain = 0
KSE2 150443Z 05003KT 23/22 A3012 RMK A01 T02270220  RH  096%=      5-min Rain = 0
KSE2 150444Z 05004KT 23/22 A3012 RMK A01 T02260219  RH  096%=      5-min Rain = 0
KSE2 150445Z 06004KT 23/22 A3012 RMK A01 T02260219  RH  096%=      5-min Rain = 0
KSE2 150446Z 06004KT 23/22 A3012 RMK A01 T02260219  RH  096%=      5-min Rain = 0
KSE2 150447Z 06004KT 23/22 A3012 RMK A01 T02250219  RH  096%=      5-min Rain = 0
KSE2 150448Z 06005KT 23/22 A3012 RMK A01 T02250219  RH  096%=      5-min Rain = 0
KSE2 150449Z 06004KT 23/22 A3012 RMK A01 T02250219  RH  096%=      5-min Rain = 0
KSE2 150450Z 06004KT 23/22 A3011 RMK A01 T02250219  RH  096%=      5-min Rain = 0
KSE2 150451Z 06004KT 23/22 A3011 RMK A01 T02250219  RH  096%=      5-min Rain = 0
KSE2 150452Z 05003KT 23/22 A3011 RMK A01 T02250219  RH  096%=      5-min Rain = 0
KSE2 150453Z 05003KT 23/22 A3011 RMK A01 T02250219  RH  096%=      5-min Rain = 0
KSE2 150454Z 05003KT 23/22 A3011 RMK A01 T02250219  RH  096%=      5-min Rain = 0
KSE2 150455Z 05003KT 23/22 A3011 RMK A01 T02250218  RH  096%=      5-min Rain = 0
KSE2 150456Z 05003KT 23/22 A3011 RMK A01 T02250218  RH  096%=      5-min Rain = 0
KSE2 150457Z 04003KT 23/22 A3011 RMK A01 T02250218  RH  096%=      5-min Rain = 0
KSE2 150458Z 04003KT 22/22 A3011 RMK A01 T02240218  RH  096%=      5-min Rain = 0
KSE2 150459Z 04003KT 23/22 A3011 RMK A01 T02250218  RH  096%=      5-min Rain = 0

Page generated in 0.1218 seconds.